Wetterdaten: Mittwoch, 18.03.2020
Datum Zeit Temp. Aussen Temp. o. S. Temp +5cm Feuchte Auss Luftdruck Regen Sonnenschein Regendauer Solar Windben Empfang
18.03.2020 00:00 8,4 C 7,2 C 6,7 C 69 % 1029,5 hPa 0,0 l/m 0 min 0 min 0 W/m 0,0 km/h (0 Bft) 97,87 %
18.03.2020 00:02 8,4 C 7,2 C 6,7 C 69 % 1029,4 hPa 0,0 l/m 0 min 0 min 0 W/m 6,4 km/h (2 Bft) 100,00 %
18.03.2020 00:04 8,4 C 7,2 C 6,7 C 69 % 1029,4 hPa 0,0 l/m 0 min 0 min 0 W/m 3,2 km/h (1 Bft) 100,00 %
18.03.2020 00:08 8,3 C 7,2 C 6,1 C 70 % 1029,4 hPa 0,0 l/m 0 min 0 min 0 W/m 3,2 km/h (1 Bft) 100,00 %
18.03.2020 00:10 8,3 C 7,2 C 6,1 C 70 % 1029,4 hPa 0,0 l/m 0 min 0 min 0 W/m 6,4 km/h (2 Bft) 100,00 %
18.03.2020 00:12 8,3 C 7,2 C 6,1 C 70 % 1029,4 hPa 0,0 l/m 0 min 0 min 0 W/m 6,4 km/h (2 Bft) 100,00 %
18.03.2020 00:14 8,3 C 7,2 C 6,7 C 70 % 1029,3 hPa 0,0 l/m 0 min 0 min 0 W/m 0,0 km/h (0 Bft) 100,00 %
18.03.2020 00:16 8,2 C 7,2 C 6,7 C 71 % 1029,4 hPa 0,0 l/m 0 min 0 min 0 W/m 6,4 km/h (2 Bft) 100,00 %
18.03.2020 00:18 8,2 C 7,2 C 6,1 C 71 % 1029,3 hPa 0,0 l/m 0 min 0 min 0 W/m 9,7 km/h (2 Bft) 100,00 %
18.03.2020 00:20 8,2 C 7,2 C 6,7 C 71 % 1029,3 hPa 0,0 l/m 0 min 0 min 0 W/m 0,0 km/h (0 Bft) 100,00 %
18.03.2020 00:22 8,2 C 7,2 C 6,7 C 71 % 1029,3 hPa 0,0 l/m 0 min 0 min 0 W/m 0,0 km/h (0 Bft) 97,87 %
18.03.2020 00:24 8,1 C 7,2 C 6,7 C 71 % 1029,2 hPa 0,0 l/m 0 min 0 min 0 W/m 0,0 km/h (0 Bft) 100,00 %
18.03.2020 00:26 8,1 C 7,2 C 6,7 C 71 % 1029,3 hPa 0,0 l/m 0 min 0 min 0 W/m 0,0 km/h (0 Bft) 97,87 %
18.03.2020 00:28 8,1 C 7,2 C 6,1 C 72 % 1029,3 hPa 0,0 l/m 0 min 0 min 0 W/m 0,0 km/h (0 Bft) 100,00 %
18.03.2020 00:30 8,1 C 7,2 C 6,7 C 72 % 1029,3 hPa 0,0 l/m 0 min 0 min 0 W/m 0,0 km/h (0 Bft) 100,00 %
18.03.2020 00:32 8,1 C 7,2 C 6,7 C 72 % 1029,2 hPa 0,0 l/m 0 min 0 min 0 W/m 0,0 km/h (0 Bft) 100,00 %
18.03.2020 00:34 8,1 C 7,2 C 6,7 C 72 % 1029,3 hPa 0,0 l/m 0 min 0 min 0 W/m 0,0 km/h (0 Bft) 100,00 %
18.03.2020 00:36 8,1 C 7,2 C 6,7 C 72 % 1029,3 hPa 0,0 l/m 0 min 0 min 0 W/m 0,0 km/h (0 Bft) 97,87 %
18.03.2020 00:38 8,0 C 7,2 C 6,1 C 72 % 1029,2 hPa 0,0 l/m 0 min 0 min 0 W/m 0,0 km/h (0 Bft) 100,00 %
18.03.2020 00:40 8,0 C 7,2 C 6,1 C 72 % 1029,2 hPa 0,0 l/m 0 min 0 min 0 W/m 3,2 km/h (1 Bft) 100,00 %
18.03.2020 00:42 8,0 C 7,2 C 6,7 C 72 % 1029,2 hPa 0,0 l/m 0 min 0 min 0 W/m 6,4 km/h (2 Bft) 97,83 %
18.03.2020 00:44 8,0 C 7,2 C 6,7 C 73 % 1029,2 hPa 0,0 l/m 0 min 0 min 0 W/m 6,4 km/h (2 Bft) 100,00 %
18.03.2020 00:46 7,9 C 7,2 C 6,7 C 73 % 1029,2 hPa 0,0 l/m 0 min 0 min 0 W/m 6,4 km/h (2 Bft) 100,00 %
18.03.2020 00:48 7,9 C 7,2 C 6,7 C 73 % 1029,2 hPa 0,0 l/m 0 min 0 min 0 W/m 12,9 km/h (3 Bft) 100,00 %
18.03.2020 00:50 7,9 C 7,2 C 6,7 C 73 % 1029,1 hPa 0,0 l/m 0 min 0 min 0 W/m 3,2 km/h (1 Bft) 100,00 %
18.03.2020 00:52 7,9 C 7,2 C 6,7 C 73 % 1029,1 hPa 0,0 l/m 0 min 0 min 0 W/m 0,0 km/h (0 Bft) 100,00 %
18.03.2020 00:54 7,9 C 7,2 C 6,7 C 73 % 1029,1 hPa 0,0 l/m 0 min 0 min 0 W/m 0,0 km/h (0 Bft) 100,00 %
18.03.2020 00:56 7,9 C 7,2 C 6,7 C 73 % 1029,1 hPa 0,0 l/m 0 min 0 min 0 W/m 0,0 km/h (0 Bft) 100,00 %
18.03.2020 00:58 7,9 C 7,2 C 6,7 C 74 % 1029,0 hPa 0,0 l/m 0 min 0 min 0 W/m 12,9 km/h (3 Bft) 100,00 %
18.03.2020 01:00 7,9 C 7,2 C 6,7 C 74 % 1029,0 hPa 0,0 l/m 0 min 0 min 0 W/m 12,9 km/h (3 Bft) 100,00 %
18.03.2020 01:02 7,9 C 7,2 C 6,7 C 74 % 1029,0 hPa 0,0 l/m 0 min 0 min 0 W/m 0,0 km/h (0 Bft) 100,00 %
18.03.2020 01:04 7,9 C 7,2 C 6,7 C 74 % 1029,1 hPa 0,0 l/m 0 min 0 min 0 W/m 0,0 km/h (0 Bft) 97,87 %
18.03.2020 01:06 7,9 C 7,2 C 6,7 C 74 % 1029,1 hPa 0,0 l/m 0 min 0 min 0 W/m 0,0 km/h (0 Bft) 100,00 %
18.03.2020 01:08 7,9 C 7,2 C 6,7 C 74 % 1029,0 hPa 0,0 l/m 0 min 0 min 0 W/m 0,0 km/h (0 Bft) 100,00 %
18.03.2020 01:10 7,9 C 6,7 C 6,1 C 74 % 1029,1 hPa 0,0 l/m 0 min 0 min 0 W/m 0,0 km/h (0 Bft) 97,87 %
18.03.2020 01:12 7,9 C 6,7 C 6,1 C 74 % 1029,0 hPa 0,0 l/m 0 min 0 min 0 W/m 3,2 km/h (1 Bft) 97,87 %
18.03.2020 01:14 7,9 C 6,7 C 6,1 C 74 % 1029,1 hPa 0,0 l/m 0 min 0 min 0 W/m 0,0 km/h (0 Bft) 97,87 %
18.03.2020 01:16 7,8 C 6,7 C 5,6 C 74 % 1029,1 hPa 0,0 l/m 0 min 0 min 0 W/m 0,0 km/h (0 Bft) 97,83 %
18.03.2020 01:18 7,8 C 6,7 C 5,6 C 74 % 1029,0 hPa 0,0 l/m 0 min 0 min 0 W/m 3,2 km/h (1 Bft) 95,74 %
18.03.2020 01:20 7,8 C 6,7 C 5,6 C 74 % 1029,0 hPa 0,0 l/m 0 min 0 min 0 W/m 0,0 km/h (0 Bft) 95,74 %
18.03.2020 01:22 7,8 C 6,7 C 5,6 C 74 % 1029,0 hPa 0,0 l/m 0 min 0 min 0 W/m 0,0 km/h (0 Bft) 95,74 %
18.03.2020 01:24 7,8 C 6,7 C 5,0 C 74 % 1029,0 hPa 0,0 l/m 0 min 0 min 0 W/m 0,0 km/h (0 Bft) 95,74 %
18.03.2020 01:26 7,8 C 6,7 C 5,0 C 74 % 1029,1 hPa 0,0 l/m 0 min 0 min 0 W/m 0,0 km/h (0 Bft) 93,62 %
18.03.2020 01:28 7,8 C 6,7 C 5,6 C 74 % 1029,0 hPa 0,0 l/m 0 min 0 min 0 W/m 0,0 km/h (0 Bft) 95,65 %
18.03.2020 01:30 7,7 C 6,7 C 5,6 C 74 % 1029,1 hPa 0,0 l/m 0 min 0 min 0 W/m 0,0 km/h (0 Bft) 95,74 %
18.03.2020 01:32 7,7 C 6,7 C 5,6 C 75 % 1029,0 hPa 0,0 l/m 0 min 0 min 0 W/m 0,0 km/h (0 Bft) 95,74 %
18.03.2020 01:34 7,7 C 6,7 C 5,6 C 75 % 1029,0 hPa 0,0 l/m 0 min 0 min 0 W/m 0,0 km/h (0 Bft) 95,74 %
18.03.2020 01:36 7,7 C 6,7 C 5,6 C 75 % 1029,0 hPa 0,0 l/m 0 min 0 min 0 W/m 6,4 km/h (2 Bft) 95,74 %
18.03.2020 01:38 7,7 C 6,7 C 5,6 C 75 % 1028,9 hPa 0,0 l/m 0 min 0 min 0 W/m 6,4 km/h (2 Bft) 95,74 %
18.03.2020 01:40 7,6 C 6,7 C 5,6 C 75 % 1028,8 hPa 0,0 l/m 0 min 0 min 0 W/m 3,2 km/h (1 Bft) 95,65 %
18.03.2020 01:42 7,6 C 6,7 C 5,6 C 75 % 1028,7 hPa 0,0 l/m 0 min 0 min 0 W/m 0,0 km/h (0 Bft) 95,74 %
18.03.2020 01:44 7,6 C 6,7 C 6,1 C 75 % 1028,8 hPa 0,0 l/m 0 min 0 min 0 W/m 0,0 km/h (0 Bft) 95,74 %
18.03.2020 01:46 7,6 C 6,7 C 6,1 C 75 % 1028,7 hPa 0,0 l/m 0 min 0 min 0 W/m 0,0 km/h (0 Bft) 95,74 %
18.03.2020 01:48 7,6 C 6,7 C 6,1 C 75 % 1028,6 hPa 0,0 l/m 0 min 0 min 0 W/m 0,0 km/h (0 Bft) 95,74 %
18.03.2020 01:50 7,6 C 6,7 C 6,1 C 75 % 1028,6 hPa 0,0 l/m 0 min 0 min 0 W/m 0,0 km/h (0 Bft) 97,83 %
18.03.2020 01:52 7,6 C 6,7 C 6,1 C 76 % 1028,6 hPa 0,0 l/m 0 min 0 min 0 W/m 0,0 km/h (0 Bft) 97,87 %
18.03.2020 01:54 7,5 C 6,7 C 6,1 C 76 % 1028,6 hPa 0,0 l/m 0 min 0 min 0 W/m 0,0 km/h (0 Bft) 97,87 %
18.03.2020 01:56 7,5 C 6,7 C 6,1 C 76 % 1028,6 hPa 0,0 l/m 0 min 0 min 0 W/m 0,0 km/h (0 Bft) 95,74 %
18.03.2020 01:58 7,5 C 6,7 C 6,1 C 76 % 1028,6 hPa 0,0 l/m 0 min 0 min 0 W/m 0,0 km/h (0 Bft) 97,87 %
18.03.2020 02:00 7,5 C 6,7 C 6,1 C 76 % 1028,6 hPa 0,0 l/m 0 min 0 min 0 W/m 0,0 km/h (0 Bft) 95,74 %
18.03.2020 02:02 7,4 C 6,7 C 5,6 C 76 % 1028,6 hPa 0,0 l/m 0 min 0 min 0 W/m 0,0 km/h (0 Bft) 85,11 %
18.03.2020 02:04 7,4 C 6,7 C 5,6 C 76 % 1028,6 hPa 0,0 l/m 0 min 0 min 0 W/m 0,0 km/h (0 Bft) 64,44 %
18.03.2020 02:06 7,4 C 6,7 C 5,6 C 76 % 1028,6 hPa 0,0 l/m 0 min 0 min 0 W/m 0,0 km/h (0 Bft) 95,74 %
18.03.2020 02:08 7,4 C 6,7 C 5,6 C 76 % 1028,6 hPa 0,0 l/m 0 min 0 min 0 W/m 0,0 km/h (0 Bft) 97,87 %
18.03.2020 02:10 7,4 C 6,7 C 5,6 C 76 % 1028,5 hPa 0,0 l/m 0 min 0 min 0 W/m 0,0 km/h (0 Bft) 95,74 %
18.03.2020 02:12 7,4 C 6,7 C 5,6 C 76 % 1028,4 hPa 0,0 l/m 0 min 0 min 0 W/m 0,0 km/h (0 Bft) 93,62 %
18.03.2020 02:14 7,4 C 6,7 C 5,6 C 76 % 1028,5 hPa 0,0 l/m 0 min 0 min 0 W/m 0,0 km/h (0 Bft) 95,65 %
18.03.2020 02:16 7,3 C 6,1 C 5,6 C 77 % 1028,5 hPa 0,0 l/m 0 min 0 min 0 W/m 0,0 km/h (0 Bft) 93,62 %
18.03.2020 02:18 7,3 C 6,1 C 5,6 C 77 % 1028,5 hPa 0,0 l/m 0 min 0 min 0 W/m 0,0 km/h (0 Bft) 95,74 %
18.03.2020 02:20 7,3 C 6,1 C 5,6 C 77 % 1028,5 hPa 0,0 l/m 0 min 0 min 0 W/m 0,0 km/h (0 Bft) 95,74 %
18.03.2020 02:22 7,3 C 6,1 C 5,6 C 77 % 1028,5 hPa 0,0 l/m 0 min 0 min 0 W/m 0,0 km/h (0 Bft) 95,74 %
18.03.2020 02:24 7,3 C 6,1 C 5,6 C 77 % 1028,4 hPa 0,0 l/m 0 min 0 min 0 W/m 0,0 km/h (0 Bft) 95,74 %
18.03.2020 02:26 7,3 C 6,1 C 5,6 C 77 % 1028,5 hPa 0,0 l/m 0 min 0 min 0 W/m 0,0 km/h (0 Bft) 95,65 %
18.03.2020 02:28 7,2 C 6,1 C 5,6 C 77 % 1028,4 hPa 0,0 l/m 0 min 0 min 0 W/m 0,0 km/h (0 Bft) 95,74 %
18.03.2020 02:30 7,2 C 6,1 C 5,6 C 77 % 1028,4 hPa 0,0 l/m 0 min 0 min 0 W/m 0,0 km/h (0 Bft) 97,87 %
18.03.2020 02:32 7,2 C 6,1 C 5,6 C 77 % 1028,4 hPa 0,0 l/m 0 min 0 min 0 W/m 0,0 km/h (0 Bft) 97,87 %
18.03.2020 02:34 7,2 C 6,1 C 5,6 C 77 % 1028,4 hPa 0,0 l/m 0 min 0 min 0 W/m 0,0 km/h (0 Bft) 97,87 %
18.03.2020 02:36 7,2 C 6,1 C 5,6 C 78 % 1028,4 hPa 0,0 l/m 0 min 0 min 0 W/m 0,0 km/h (0 Bft) 97,87 %
18.03.2020 02:38 7,1 C 6,1 C 5,6 C 78 % 1028,3 hPa 0,0 l/m 0 min 0 min 0 W/m 0,0 km/h (0 Bft) 97,83 %
18.03.2020 02:40 7,1 C 6,1 C 5,6 C 78 % 1028,3 hPa 0,0 l/m 0 min 0 min 0 W/m 0,0 km/h (0 Bft) 97,87 %
18.03.2020 02:42 7,1 C 6,1 C 5,6 C 78 % 1028,4 hPa 0,0 l/m 0 min 0 min 0 W/m 0,0 km/h (0 Bft) 97,87 %
18.03.2020 02:44 7,1 C 6,1 C 5,6 C 78 % 1028,3 hPa 0,0 l/m 0 min 0 min 0 W/m 0,0 km/h (0 Bft) 95,74 %
18.03.2020 02:46 7,1 C 6,1 C 5,6 C 78 % 1028,3 hPa 0,0 l/m 0 min 0 min 0 W/m 0,0 km/h (0 Bft) 95,74 %
18.03.2020 02:48 7,1 C 6,1 C 5,6 C 78 % 1028,3 hPa 0,0 l/m 0 min 0 min 0 W/m 0,0 km/h (0 Bft) 95,65 %
18.03.2020 02:50 7,0 C 6,1 C 5,6 C 78 % 1028,3 hPa 0,0 l/m 0 min 0 min 0 W/m 0,0 km/h (0 Bft) 97,87 %
18.03.2020 02:52 7,0 C 6,1 C 5,6 C 78 % 1028,2 hPa 0,0 l/m 0 min 0 min 0 W/m 0,0 km/h (0 Bft) 100,00 %
18.03.2020 02:54 7,0 C 6,1 C 5,6 C 79 % 1028,3 hPa 0,0 l/m 0 min 0 min 0 W/m 0,0 km/h (0 Bft) 100,00 %
18.03.2020 02:56 6,9 C 6,1 C 5,0 C 79 % 1028,3 hPa 0,0 l/m 0 min 0 min 0 W/m 0,0 km/h (0 Bft) 100,00 %
18.03.2020 02:58 6,9 C 5,6 C 5,0 C 79 % 1028,3 hPa 0,0 l/m 0 min 0 min 0 W/m 0,0 km/h (0 Bft) 100,00 %
18.03.2020 03:00 6,9 C 5,6 C 5,0 C 79 % 1028,3 hPa 0,0 l/m 0 min 0 min 0 W/m 0,0 km/h (0 Bft) 95,65 %
18.03.2020 03:02 6,9 C 5,6 C 5,0 C 79 % 1028,3 hPa 0,0 l/m 0 min 0 min 0 W/m 0,0 km/h (0 Bft) 100,00 %
18.03.2020 03:04 6,9 C 5,6 C 5,0 C 79 % 1028,3 hPa 0,0 l/m 0 min 0 min 0 W/m 0,0 km/h (0 Bft) 100,00 %
18.03.2020 03:06 6,8 C 5,6 C 5,0 C 79 % 1028,3 hPa 0,0 l/m 0 min 0 min 0 W/m 0,0 km/h (0 Bft) 100,00 %
18.03.2020 03:08 6,8 C 5,6 C 5,0 C 79 % 1028,3 hPa 0,0 l/m 0 min 0 min 0 W/m 0,0 km/h (0 Bft) 100,00 %
18.03.2020 03:10 6,8 C 5,6 C 4,4 C 79 % 1028,3 hPa 0,0 l/m 0 min 0 min 0 W/m 0,0 km/h (0 Bft) 97,83 %
18.03.2020 03:12 6,8 C 5,6 C 4,4 C 79 % 1028,3 hPa 0,0 l/m 0 min 0 min 0 W/m 0,0 km/h (0 Bft) 93,62 %
18.03.2020 03:14 6,8 C 5,6 C 5,0 C 80 % 1028,2 hPa 0,0 l/m 0 min 0 min 0 W/m 0,0 km/h (0 Bft) 100,00 %
18.03.2020 03:16 6,8 C 5,6 C 5,0 C 80 % 1028,2 hPa 0,0 l/m 0 min 0 min 0 W/m 0,0 km/h (0 Bft) 59,57 %
18.03.2020 03:18 6,7 C 5,6 C 5,0 C 80 % 1028,2 hPa 0,0 l/m 0 min 0 min 0 W/m 3,2 km/h (1 Bft) 90,91 %
18.03.2020 03:20 6,7 C 5,6 C 5,0 C 80 % 1028,2 hPa 0,0 l/m 0 min 0 min 0 W/m 0,0 km/h (0 Bft) 97,87 %
18.03.2020 03:22 6,7 C 5,6 C 5,0 C 80 % 1028,1 hPa 0,0 l/m 0 min 0 min 0 W/m 3,2 km/h (1 Bft) 97,83 %
18.03.2020 03:24 6,6 C 5,6 C 5,0 C 80 % 1028,1 hPa 0,0 l/m 0 min 0 min 0 W/m 0,0 km/h (0 Bft) 97,87 %
18.03.2020 03:26 6,6 C 5,6 C 5,0 C 81 % 1028,1 hPa 0,0 l/m 0 min 0 min 0 W/m 3,2 km/h (1 Bft) 97,87 %
18.03.2020 03:28 6,6 C 5,6 C 5,0 C 81 % 1028,2 hPa 0,0 l/m 0 min 0 min 0 W/m 0,0 km/h (0 Bft) 95,74 %
18.03.2020 03:30 6,6 C 5,6 C 5,0 C 81 % 1028,1 hPa 0,0 l/m 0 min 0 min 0 W/m 6,4 km/h (2 Bft) 97,87 %
18.03.2020 03:32 6,6 C 5,6 C 5,0 C 81 % 1028,1 hPa 0,0 l/m 0 min 0 min 0 W/m 0,0 km/h (0 Bft) 97,83 %
18.03.2020 03:34 6,6 C 5,6 C 5,0 C 81 % 1028,1 hPa 0,0 l/m 0 min 0 min 0 W/m 0,0 km/h (0 Bft) 97,87 %
18.03.2020 03:36 6,6 C 5,6 C 5,0 C 81 % 1028,1 hPa 0,0 l/m 0 min 0 min 0 W/m 12,9 km/h (3 Bft) 97,87 %
18.03.2020 03:38 6,5 C 5,6 C 5,0 C 81 % 1028,1 hPa 0,0 l/m 0 min 0 min 0 W/m 6,4 km/h (2 Bft) 97,87 %
18.03.2020 03:40 6,5 C 5,6 C 5,0 C 81 % 1028,1 hPa 0,0 l/m 0 min 0 min 0 W/m 0,0 km/h (0 Bft) 97,87 %
18.03.2020 03:42 6,5 C 5,6 C 4,4 C 81 % 1028,2 hPa 0,0 l/m 0 min 0 min 0 W/m 0,0 km/h (0 Bft) 97,87 %
18.03.2020 03:44 6,5 C 5,6 C 5,0 C 82 % 1028,2 hPa 0,0 l/m 0 min 0 min 0 W/m 0,0 km/h (0 Bft) 97,83 %
18.03.2020 03:46 6,5 C 5,6 C 5,0 C 82 % 1028,2 hPa 0,0 l/m 0 min 0 min 0 W/m 0,0 km/h (0 Bft) 97,87 %
18.03.2020 03:48 6,5 C 5,6 C 5,0 C 82 % 1028,2 hPa 0,0 l/m 0 min 0 min 0 W/m 0,0 km/h (0 Bft) 97,87 %
18.03.2020 03:50 6,5 C 5,6 C 5,0 C 82 % 1028,2 hPa 0,0 l/m 0 min 0 min 0 W/m 0,0 km/h (0 Bft) 97,87 %
18.03.2020 03:52 6,4 C 5,6 C 5,0 C 82 % 1028,1 hPa 0,0 l/m 0 min 0 min 0 W/m 0,0 km/h (0 Bft) 97,87 %
18.03.2020 03:54 6,4 C 5,6 C 5,0 C 82 % 1028,1 hPa 0,0 l/m 0 min 0 min 0 W/m 0,0 km/h (0 Bft) 100,00 %
18.03.2020 03:56 6,4 C 5,6 C 5,0 C 82 % 1028,1 hPa 0,0 l/m 0 min 0 min 0 W/m 0,0 km/h (0 Bft) 100,00 %
18.03.2020 03:58 6,4 C 5,6 C 5,0 C 82 % 1028,1 hPa 0,0 l/m 0 min 0 min 0 W/m 3,2 km/h (1 Bft) 100,00 %
18.03.2020 04:00 6,4 C 5,6 C 5,0 C 82 % 1028,1 hPa 0,0 l/m 0 min 0 min 0 W/m 6,4 km/h (2 Bft) 100,00 %
18.03.2020 04:02 6,4 C 5,6 C 5,0 C 83 % 1028,1 hPa 0,0 l/m 0 min 0 min 0 W/m 3,2 km/h (1 Bft) 100,00 %
18.03.2020 04:04 6,4 C 5,6 C 5,0 C 82 % 1028,1 hPa 0,0 l/m 0 min 0 min 0 W/m 3,2 km/h (1 Bft) 100,00 %
18.03.2020 04:06 6,4 C 5,6 C 5,0 C 83 % 1028,1 hPa 0,0 l/m 0 min 0 min 0 W/m 0,0 km/h (0 Bft) 97,87 %
18.03.2020 04:08 6,3 C 5,6 C 4,4 C 83 % 1028,2 hPa 0,0 l/m 0 min 0 min 0 W/m 3,2 km/h (1 Bft) 93,62 %
18.03.2020 04:10 6,3 C 5,6 C 5,0 C 83 % 1028,2 hPa 0,0 l/m 0 min 0 min 0 W/m 0,0 km/h (0 Bft) 100,00 %
18.03.2020 04:12 6,3 C 5,6 C 5,0 C 83 % 1028,1 hPa 0,0 l/m 0 min 0 min 0 W/m 0,0 km/h (0 Bft) 97,87 %
18.03.2020 04:14 6,3 C 5,6 C 4,4 C 83 % 1028,2 hPa 0,0 l/m 0 min 0 min 0 W/m 0,0 km/h (0 Bft) 100,00 %
18.03.2020 04:16 6,3 C 5,6 C 4,4 C 83 % 1028,2 hPa 0,0 l/m 0 min 0 min 0 W/m 0,0 km/h (0 Bft) 97,87 %
18.03.2020 04:18 6,3 C 5,6 C 4,4 C 83 % 1028,2 hPa 0,0 l/m 0 min 0 min 0 W/m 0,0 km/h (0 Bft) 100,00 %
18.03.2020 04:20 6,3 C 5,6 C 4,4 C 83 % 1028,2 hPa 0,0 l/m 0 min 0 min 0 W/m 0,0 km/h (0 Bft) 100,00 %
18.03.2020 04:22 6,3 C 5,6 C 4,4 C 83 % 1028,2 hPa 0,0 l/m 0 min 0 min 0 W/m 0,0 km/h (0 Bft) 100,00 %
18.03.2020 04:24 6,3 C 5,6 C 4,4 C 83 % 1028,2 hPa 0,0 l/m 0 min 0 min 0 W/m 0,0 km/h (0 Bft) 100,00 %
18.03.2020 04:26 6,3 C 5,6 C 4,4 C 83 % 1028,1 hPa 0,0 l/m 0 min 0 min 0 W/m 0,0 km/h (0 Bft) 97,87 %
18.03.2020 04:28 6,3 C 5,6 C 3,9 C 83 % 1028,2 hPa 0,0 l/m 0 min 0 min 0 W/m 3,2 km/h (1 Bft) 100,00 %
18.03.2020 04:30 6,2 C 5,6 C 4,4 C 83 % 1028,2 hPa 0,0 l/m 0 min 0 min 0 W/m 3,2 km/h (1 Bft) 97,87 %
18.03.2020 04:32 6,2 C 5,6 C 4,4 C 83 % 1028,2 hPa 0,0 l/m 0 min 0 min 0 W/m 0,0 km/h (0 Bft) 100,00 %
18.03.2020 04:34 6,2 C 5,6 C 4,4 C 84 % 1028,2 hPa 0,0 l/m 0 min 0 min 0 W/m 3,2 km/h (1 Bft) 97,83 %
18.03.2020 04:36 6,2 C 5,6 C 4,4 C 84 % 1028,2 hPa 0,0 l/m 0 min 0 min 0 W/m 0,0 km/h (0 Bft) 100,00 %
18.03.2020 04:38 6,2 C 5,6 C 4,4 C 84 % 1028,2 hPa 0,0 l/m 0 min 0 min 0 W/m 0,0 km/h (0 Bft) 100,00 %
18.03.2020 04:40 6,2 C 5,6 C 4,4 C 84 % 1028,2 hPa 0,0 l/m 0 min 0 min 0 W/m 0,0 km/h (0 Bft) 100,00 %
18.03.2020 04:42 6,2 C 5,6 C 4,4 C 84 % 1028,2 hPa 0,0 l/m 0 min 0 min 0 W/m 0,0 km/h (0 Bft) 100,00 %
18.03.2020 04:44 6,2 C 5,6 C 4,4 C 84 % 1028,2 hPa 0,0 l/m 0 min 0 min 0 W/m 0,0 km/h (0 Bft) 100,00 %
18.03.2020 04:46 6,2 C 5,6 C 4,4 C 84 % 1028,2 hPa 0,0 l/m 0 min 0 min 0 W/m 0,0 km/h (0 Bft) 100,00 %
18.03.2020 04:48 6,2 C 5,6 C 4,4 C 84 % 1028,2 hPa 0,0 l/m 0 min 0 min 0 W/m 0,0 km/h (0 Bft) 100,00 %
18.03.2020 04:50 6,2 C 5,6 C 4,4 C 84 % 1028,2 hPa 0,0 l/m 0 min 0 min 0 W/m 0,0 km/h (0 Bft) 100,00 %
18.03.2020 04:52 6,2 C 5,6 C 4,4 C 85 % 1028,2 hPa 0,0 l/m 0 min 0 min 0 W/m 6,4 km/h (2 Bft) 97,87 %
18.03.2020 04:54 6,1 C 5,6 C 4,4 C 85 % 1028,2 hPa 0,0 l/m 0 min 0 min 0 W/m 3,2 km/h (1 Bft) 100,00 %
18.03.2020 04:56 6,1 C 5,6 C 4,4 C 85 % 1028,2 hPa 0,0 l/m 0 min 0 min 0 W/m 3,2 km/h (1 Bft) 100,00 %
18.03.2020 04:58 6,1 C 5,6 C 4,4 C 85 % 1028,3 hPa 0,0 l/m 0 min 0 min 0 W/m 6,4 km/h (2 Bft) 100,00 %
18.03.2020 05:00 6,1 C 5,6 C 4,4 C 85 % 1028,2 hPa 0,0 l/m 0 min 0 min 0 W/m 3,2 km/h (1 Bft) 100,00 %
18.03.2020 05:02 6,1 C 5,6 C 4,4 C 85 % 1028,2 hPa 0,0 l/m 0 min 0 min 0 W/m 12,9 km/h (3 Bft) 100,00 %
18.03.2020 05:04 6,1 C 5,6 C 4,4 C 85 % 1028,3 hPa 0,0 l/m 0 min 0 min 0 W/m 0,0 km/h (0 Bft) 95,74 %
18.03.2020 05:06 6,1 C 5,6 C 4,4 C 85 % 1028,3 hPa 0,0 l/m 0 min 0 min 0 W/m 0,0 km/h (0 Bft) 97,87 %
18.03.2020 05:08 6,1 C 5,6 C 4,4 C 85 % 1028,3 hPa 0,0 l/m 0 min 0 min 0 W/m 0,0 km/h (0 Bft) 100,00 %
18.03.2020 05:10 6,1 C 5,6 C 4,4 C 85 % 1028,3 hPa 0,0 l/m 0 min 0 min 0 W/m 0,0 km/h (0 Bft) 95,65 %
18.03.2020 05:12 6,1 C 5,6 C 4,4 C 85 % 1028,2 hPa 0,0 l/m 0 min 0 min 0 W/m 0,0 km/h (0 Bft) 93,62 %
18.03.2020 05:14 6,1 C 5,6 C 4,4 C 85 % 1028,2 hPa 0,0 l/m 0 min 0 min 0 W/m 3,2 km/h (1 Bft) 97,87 %
18.03.2020 05:16 6,1 C 5,6 C 4,4 C 86 % 1028,2 hPa 0,0 l/m 0 min 0 min 0 W/m 6,4 km/h (2 Bft) 97,87 %
18.03.2020 05:18 6,1 C 5,6 C 4,4 C 86 % 1028,2 hPa 0,0 l/m 0 min 0 min 0 W/m 6,4 km/h (2 Bft) 95,74 %
18.03.2020 05:20 6,1 C 5,6 C 4,4 C 86 % 1028,2 hPa 0,0 l/m 0 min 0 min 0 W/m 6,4 km/h (2 Bft) 95,65 %
18.03.2020 05:22 6,1 C 5,6 C 4,4 C 86 % 1028,3 hPa 0,0 l/m 0 min 0 min 0 W/m 0,0 km/h (0 Bft) 93,62 %
18.03.2020 05:24 6,1 C 5,6 C 4,4 C 86 % 1028,3 hPa 0,0 l/m 0 min 0 min 0 W/m 0,0 km/h (0 Bft) 95,74 %
18.03.2020 05:26 6,1 C 5,6 C 4,4 C 86 % 1028,3 hPa 0,0 l/m 0 min 0 min 0 W/m 0,0 km/h (0 Bft) 95,74 %
18.03.2020 05:28 6,1 C 5,0 C 4,4 C 86 % 1028,2 hPa 0,0 l/m 0 min 0 min 0 W/m 0,0 km/h (0 Bft) 95,74 %
18.03.2020 05:30 6,1 C 5,0 C 4,4 C 86 % 1028,2 hPa 0,0 l/m 0 min 0 min 0 W/m 0,0 km/h (0 Bft) 95,74 %
18.03.2020 05:32 6,1 C 5,0 C 4,4 C 86 % 1028,3 hPa 0,0 l/m 0 min 0 min 0 W/m 0,0 km/h (0 Bft) 93,48 %
18.03.2020 05:34 6,1 C 5,0 C 4,4 C 86 % 1028,2 hPa 0,0 l/m 0 min 0 min 0 W/m 0,0 km/h (0 Bft) 93,62 %
18.03.2020 05:36 6,1 C 5,0 C 4,4 C 86 % 1028,3 hPa 0,0 l/m 0 min 0 min 0 W/m 0,0 km/h (0 Bft) 95,74 %
18.03.2020 05:38 6,1 C 5,0 C 4,4 C 86 % 1028,3 hPa 0,0 l/m 0 min 0 min 0 W/m 0,0 km/h (0 Bft) 91,49 %
18.03.2020 05:40 6,1 C 5,0 C 4,4 C 86 % 1028,3 hPa 0,0 l/m 0 min 0 min 0 W/m 3,2 km/h (1 Bft) 89,36 %
18.03.2020 05:42 6,1 C 5,0 C 4,4 C 87 % 1028,2 hPa 0,0 l/m 0 min 0 min 0 W/m 3,2 km/h (1 Bft) 93,62 %
18.03.2020 05:44 6,0 C 5,0 C 4,4 C 87 % 1028,2 hPa 0,0 l/m 0 min 0 min 0 W/m 6,4 km/h (2 Bft) 93,48 %
18.03.2020 05:46 6,0 C 5,0 C 4,4 C 87 % 1028,2 hPa 0,0 l/m 0 min 0 min 0 W/m 0,0 km/h (0 Bft) 91,49 %
18.03.2020 05:48 6,0 C 5,0 C 4,4 C 87 % 1028,2 hPa 0,0 l/m 0 min 0 min 0 W/m 0,0 km/h (0 Bft) 93,62 %
18.03.2020 05:50 6,0 C 5,0 C 4,4 C 87 % 1028,2 hPa 0,0 l/m 0 min 0 min 0 W/m 0,0 km/h (0 Bft) 93,62 %
18.03.2020 05:52 6,0 C 5,0 C 4,4 C 87 % 1028,2 hPa 0,0 l/m 0 min 0 min 0 W/m 3,2 km/h (1 Bft) 93,62 %
18.03.2020 05:54 6,0 C 5,0 C 4,4 C 87 % 1028,3 hPa 0,0 l/m 0 min 0 min 0 W/m 3,2 km/h (1 Bft) 93,62 %
18.03.2020 05:56 5,9 C 5,0 C 4,4 C 87 % 1028,2 hPa 0,0 l/m 0 min 0 min 0 W/m 0,0 km/h (0 Bft) 95,65 %
18.03.2020 05:58 5,9 C 5,0 C 3,9 C 87 % 1028,3 hPa 0,0 l/m 0 min 0 min 0 W/m 0,0 km/h (0 Bft) 93,62 %
18.03.2020 06:00 5,9 C 5,0 C 3,9 C 87 % 1028,2 hPa 0,0 l/m 0 min 0 min 0 W/m 0,0 km/h (0 Bft) 97,87 %
18.03.2020 06:02 5,9 C 5,0 C 3,9 C 87 % 1028,2 hPa 0,0 l/m 0 min 0 min 0 W/m 0,0 km/h (0 Bft) 97,87 %
18.03.2020 06:04 5,9 C 5,0 C 3,9 C 87 % 1028,2 hPa 0,0 l/m 0 min 0 min 0 W/m 0,0 km/h (0 Bft) 97,87 %
18.03.2020 06:08 5,8 C 5,0 C 4,4 C 87 % 1028,2 hPa 0,0 l/m 0 min 0 min 0 W/m 6,4 km/h (2 Bft) 96,77 %
18.03.2020 06:10 5,8 C 5,0 C 4,4 C 88 % 1028,2 hPa 0,0 l/m 0 min 0 min 0 W/m 6,4 km/h (2 Bft) 97,87 %
18.03.2020 06:12 5,8 C 5,0 C 3,9 C 88 % 1028,2 hPa 0,0 l/m 0 min 0 min 0 W/m 6,4 km/h (2 Bft) 97,87 %
18.03.2020 06:14 5,8 C 5,0 C 3,9 C 88 % 1028,1 hPa 0,0 l/m 0 min 0 min 0 W/m 3,2 km/h (1 Bft) 97,87 %
18.03.2020 06:16 5,8 C 5,0 C 3,9 C 88 % 1028,2 hPa 0,0 l/m 0 min 0 min 0 W/m 3,2 km/h (1 Bft) 97,87 %
18.03.2020 06:18 5,8 C 5,0 C 4,4 C 88 % 1028,2 hPa 0,0 l/m 0 min 0 min 0 W/m 0,0 km/h (0 Bft) 97,87 %
18.03.2020 06:20 5,8 C 5,0 C 4,4 C 88 % 1028,2 hPa 0,0 l/m 0 min 0 min 0 W/m 0,0 km/h (0 Bft) 97,83 %
18.03.2020 06:22 5,8 C 5,0 C 3,9 C 88 % 1028,2 hPa 0,0 l/m 0 min 0 min 0 W/m 0,0 km/h (0 Bft) 97,87 %
18.03.2020 06:24 5,8 C 5,0 C 3,9 C 88 % 1028,2 hPa 0,0 l/m 0 min 0 min 0 W/m 0,0 km/h (0 Bft) 97,87 %
18.03.2020 06:26 5,7 C 5,0 C 3,9 C 88 % 1028,2 hPa 0,0 l/m 0 min 0 min 0 W/m 0,0 km/h (0 Bft) 97,87 %
18.03.2020 06:28 5,7 C 5,0 C 3,9 C 89 % 1028,2 hPa 0,0 l/m 0 min 0 min 0 W/m 6,4 km/h (2 Bft) 97,87 %
18.03.2020 06:30 5,7 C 5,0 C 3,9 C 89 % 1028,2 hPa 0,0 l/m 0 min 0 min 0 W/m 6,4 km/h (2 Bft) 97,83 %
18.03.2020 06:32 5,7 C 5,0 C 3,9 C 89 % 1028,2 hPa 0,0 l/m 0 min 0 min 0 W/m 3,2 km/h (1 Bft) 97,87 %
18.03.2020 06:34 5,7 C 5,0 C 3,9 C 89 % 1028,2 hPa 0,0 l/m 0 min 0 min 0 W/m 3,2 km/h (1 Bft) 97,87 %
18.03.2020 06:36 5,7 C 5,0 C 3,9 C 89 % 1028,2 hPa 0,0 l/m 0 min 0 min 0 W/m 0,0 km/h (0 Bft) 97,87 %
18.03.2020 06:38 5,7 C 5,0 C 3,9 C 89 % 1028,2 hPa 0,0 l/m 0 min 0 min 0 W/m 6,4 km/h (2 Bft) 97,87 %
18.03.2020 06:40 5,7 C 5,0 C 3,9 C 89 % 1028,2 hPa 0,0 l/m 0 min 0 min 0 W/m 3,2 km/h (1 Bft) 100,00 %
18.03.2020 06:42 5,7 C 5,0 C 3,9 C 89 % 1028,2 hPa 0,0 l/m 0 min 0 min 1 W/m 0,0 km/h (0 Bft) 100,00 %
18.03.2020 06:44 5,7 C 5,0 C 3,9 C 89 % 1028,2 hPa 0,0 l/m 0 min 0 min 5 W/m 0,0 km/h (0 Bft) 100,00 %
18.03.2020 06:46 5,7 C 5,0 C 3,9 C 90 % 1028,2 hPa 0,0 l/m 0 min 0 min 5 W/m 0,0 km/h (0 Bft) 100,00 %
18.03.2020 06:48 5,7 C 5,0 C 3,9 C 90 % 1028,2 hPa 0,0 l/m 0 min 0 min 7 W/m 6,4 km/h (2 Bft) 100,00 %
18.03.2020 06:50 5,7 C 5,0 C 3,9 C 90 % 1028,2 hPa 0,0 l/m 0 min 0 min 8 W/m 0,0 km/h (0 Bft) 100,00 %
18.03.2020 06:52 5,6 C 5,0 C 3,9 C 90 % 1028,2 hPa 0,0 l/m 0 min 0 min 9 W/m 0,0 km/h (0 Bft) 95,74 %
18.03.2020 06:54 5,6 C 5,0 C 3,9 C 90 % 1028,2 hPa 0,0 l/m 0 min 0 min 11 W/m 3,2 km/h (1 Bft) 100,00 %
18.03.2020 06:56 5,6 C 5,0 C 3,9 C 90 % 1028,2 hPa 0,0 l/m 0 min 0 min 12 W/m 0,0 km/h (0 Bft) 100,00 %
18.03.2020 06:58 5,6 C 5,0 C 3,9 C 90 % 1028,2 hPa 0,0 l/m 0 min 0 min 12 W/m 0,0 km/h (0 Bft) 100,00 %
18.03.2020 07:00 5,6 C 5,0 C 4,4 C 90 % 1028,2 hPa 0,0 l/m 0 min 0 min 12 W/m 0,0 km/h (0 Bft) 100,00 %
18.03.2020 07:02 5,6 C 5,0 C 4,4 C 90 % 1028,1 hPa 0,0 l/m 0 min 0 min 14 W/m 0,0 km/h (0 Bft) 100,00 %
18.03.2020 07:04 5,6 C 5,0 C 4,4 C 91 % 1028,1 hPa 0,0 l/m 0 min 0 min 14 W/m 0,0 km/h (0 Bft) 100,00 %
18.03.2020 07:06 5,6 C 5,0 C 4,4 C 91 % 1028,2 hPa 0,0 l/m 0 min 0 min 16 W/m 6,4 km/h (2 Bft) 100,00 %
18.03.2020 07:08 5,6 C 5,0 C 4,4 C 91 % 1028,1 hPa 0,0 l/m 0 min 0 min 18 W/m 6,4 km/h (2 Bft) 97,87 %
18.03.2020 07:10 5,6 C 5,0 C 4,4 C 91 % 1028,1 hPa 0,0 l/m 0 min 0 min 18 W/m 0,0 km/h (0 Bft) 100,00 %
18.03.2020 07:12 5,6 C 5,0 C 4,4 C 91 % 1028,2 hPa 0,0 l/m 0 min 0 min 19 W/m 0,0 km/h (0 Bft) 100,00 %
18.03.2020 07:14 5,6 C 5,0 C 4,4 C 91 % 1028,2 hPa 0,0 l/m 0 min 0 min 22 W/m 0,0 km/h (0 Bft) 97,87 %
18.03.2020 07:16 5,6 C 5,0 C 4,4 C 91 % 1028,2 hPa 0,0 l/m 0 min 0 min 24 W/m 0,0 km/h (0 Bft) 100,00 %
18.03.2020 07:18 5,6 C 5,0 C 4,4 C 91 % 1028,2 hPa 0,0 l/m 0 min 0 min 25 W/m 6,4 km/h (2 Bft) 100,00 %
18.03.2020 07:20 5,6 C 5,0 C 4,4 C 91 % 1028,2 hPa 0,0 l/m 0 min 0 min 26 W/m 6,4 km/h (2 Bft) 97,87 %
18.03.2020 07:22 5,6 C 5,0 C 4,4 C 91 % 1028,2 hPa 0,0 l/m 0 min 0 min 26 W/m 3,2 km/h (1 Bft) 97,87 %
18.03.2020 07:24 5,7 C 5,6 C 4,4 C 92 % 1028,3 hPa 0,0 l/m 0 min 0 min 27 W/m 6,4 km/h (2 Bft) 100,00 %
18.03.2020 07:26 5,7 C 5,6 C 4,4 C 92 % 1028,2 hPa 0,0 l/m 0 min 0 min 28 W/m 0,0 km/h (0 Bft) 100,00 %
18.03.2020 07:28 5,7 C 5,6 C 5,0 C 92 % 1028,2 hPa 0,0 l/m 0 min 0 min 28 W/m 0,0 km/h (0 Bft) 97,83 %
18.03.2020 07:30 5,7 C 5,6 C 5,0 C 92 % 1028,3 hPa 0,0 l/m 0 min 0 min 28 W/m 6,4 km/h (2 Bft) 97,87 %
18.03.2020 07:32 5,7 C 5,6 C 5,0 C 92 % 1028,3 hPa 0,0 l/m 0 min 0 min 30 W/m 0,0 km/h (0 Bft) 97,87 %
18.03.2020 07:34 5,7 C 5,6 C 5,0 C 92 % 1028,3 hPa 0,0 l/m 0 min 0 min 30 W/m 3,2 km/h (1 Bft) 97,87 %
18.03.2020 07:36 5,8 C 5,6 C 5,0 C 92 % 1028,2 hPa 0,0 l/m 0 min 0 min 30 W/m 3,2 km/h (1 Bft) 98,28 %
18.03.2020 07:38 5,8 C 5,6 C 5,0 C 92 % 1028,2 hPa 0,0 l/m 0 min 0 min 30 W/m 0,0 km/h (0 Bft) 97,22 %
18.03.2020 07:40 5,8 C 5,6 C 5,0 C 93 % 1028,3 hPa 0,0 l/m 0 min 0 min 32 W/m 6,4 km/h (2 Bft) 95,65 %
18.03.2020 07:42 5,8 C 5,6 C 5,0 C 93 % 1028,3 hPa 0,0 l/m 0 min 0 min 32 W/m 6,4 km/h (2 Bft) 97,87 %
18.03.2020 07:44 5,9 C 5,6 C 5,0 C 93 % 1028,3 hPa 0,0 l/m 0 min 0 min 32 W/m 3,2 km/h (1 Bft) 97,87 %
18.03.2020 07:46 5,9 C 6,1 C 5,0 C 93 % 1028,3 hPa 0,0 l/m 0 min 0 min 32 W/m 6,4 km/h (2 Bft) 97,87 %
18.03.2020 07:48 5,9 C 6,1 C 5,0 C 93 % 1028,2 hPa 0,0 l/m 0 min 0 min 33 W/m 12,9 km/h (3 Bft) 97,87 %
18.03.2020 07:50 6,0 C 6,1 C 5,0 C 93 % 1028,3 hPa 0,0 l/m 0 min 0 min 33 W/m 6,4 km/h (2 Bft) 97,87 %
18.03.2020 07:52 6,0 C 6,1 C 5,6 C 93 % 1028,2 hPa 0,0 l/m 0 min 0 min 33 W/m 16,1 km/h (3 Bft) 97,83 %
18.03.2020 07:54 6,1 C 6,1 C 5,6 C 93 % 1028,2 hPa 0,0 l/m 0 min 0 min 34 W/m 6,4 km/h (2 Bft) 95,74 %
18.03.2020 07:56 6,1 C 6,1 C 5,6 C 93 % 1028,2 hPa 0,0 l/m 0 min 0 min 35 W/m 6,4 km/h (2 Bft) 97,87 %
18.03.2020 07:58 6,1 C 6,1 C 5,6 C 93 % 1028,2 hPa 0,0 l/m 0 min 0 min 35 W/m 6,4 km/h (2 Bft) 97,87 %
18.03.2020 08:00 6,2 C 6,1 C 5,6 C 93 % 1028,2 hPa 0,0 l/m 0 min 0 min 36 W/m 3,2 km/h (1 Bft) 95,74 %
18.03.2020 08:02 6,2 C 6,1 C 5,6 C 93 % 1028,1 hPa 0,0 l/m 0 min 0 min 38 W/m 0,0 km/h (0 Bft) 95,74 %
18.03.2020 08:04 6,3 C 6,7 C 5,6 C 94 % 1028,1 hPa 0,0 l/m 0 min 0 min 39 W/m 3,2 km/h (1 Bft) 95,65 %
18.03.2020 08:06 6,3 C 6,7 C 5,6 C 94 % 1028,2 hPa 0,0 l/m 0 min 0 min 39 W/m 0,0 km/h (0 Bft) 95,74 %
18.03.2020 08:08 6,4 C 6,7 C 6,1 C 94 % 1028,1 hPa 0,0 l/m 0 min 0 min 41 W/m 0,0 km/h (0 Bft) 95,74 %
18.03.2020 08:10 6,4 C 6,7 C 6,1 C 94 % 1028,1 hPa 0,0 l/m 0 min 0 min 40 W/m 0,0 km/h (0 Bft) 95,74 %
18.03.2020 08:12 6,5 C 6,7 C 6,1 C 94 % 1028,1 hPa 0,0 l/m 0 min 0 min 41 W/m 0,0 km/h (0 Bft) 97,87 %
18.03.2020 08:14 6,6 C 7,2 C 6,1 C 94 % 1028,1 hPa 0,0 l/m 0 min 0 min 43 W/m 0,0 km/h (0 Bft) 95,74 %
18.03.2020 08:16 6,6 C 7,2 C 6,1 C 94 % 1028,1 hPa 0,0 l/m 0 min 0 min 44 W/m 0,0 km/h (0 Bft) 97,83 %
18.03.2020 08:18 6,7 C 7,2 C 6,7 C 94 % 1028,1 hPa 0,0 l/m 0 min 0 min 46 W/m 6,4 km/h (2 Bft) 97,87 %
18.03.2020 08:20 6,8 C 7,2 C 6,7 C 94 % 1028,1 hPa 0,0 l/m 0 min 0 min 47 W/m 0,0 km/h (0 Bft) 93,62 %
18.03.2020 08:22 6,9 C 7,8 C 6,7 C 95 % 1028,1 hPa 0,0 l/m 0 min 0 min 50 W/m 0,0 km/h (0 Bft) 97,87 %
18.03.2020 08:24 7,1 C 7,8 C 7,2 C 95 % 1028,1 hPa 0,0 l/m 0 min 0 min 51 W/m 3,2 km/h (1 Bft) 97,87 %
18.03.2020 08:26 7,2 C 7,8 C 7,2 C 95 % 1028,1 hPa 0,0 l/m 0 min 0 min 51 W/m 0,0 km/h (0 Bft) 97,83 %
18.03.2020 08:28 7,3 C 8,3 C 7,2 C 95 % 1028,1 hPa 0,0 l/m 0 min 0 min 54 W/m 0,0 km/h (0 Bft) 97,87 %
18.03.2020 08:30 7,4 C 8,3 C 7,2 C 95 % 1028,1 hPa 0,0 l/m 0 min 0 min 54 W/m 0,0 km/h (0 Bft) 97,87 %
18.03.2020 08:32 7,5 C 8,3 C 7,2 C 95 % 1028,1 hPa 0,0 l/m 0 min 0 min 52 W/m 3,2 km/h (1 Bft) 95,74 %
18.03.2020 08:34 7,6 C 8,3 C 7,8 C 95 % 1028,1 hPa 0,0 l/m 0 min 0 min 54 W/m 9,7 km/h (2 Bft) 97,87 %
18.03.2020 08:36 7,7 C 8,9 C 7,8 C 95 % 1028,1 hPa 0,0 l/m 0 min 0 min 56 W/m 22,5 km/h (4 Bft) 97,87 %
18.03.2020 08:38 7,8 C 8,9 C 7,8 C 95 % 1028,1 hPa 0,0 l/m 0 min 0 min 58 W/m 0,0 km/h (0 Bft) 97,83 %
18.03.2020 08:40 8,0 C 8,9 C 7,8 C 95 % 1028,1 hPa 0,0 l/m 0 min 0 min 62 W/m 19,3 km/h (3 Bft) 97,87 %
18.03.2020 08:42 8,1 C 8,9 C 8,3 C 95 % 1028,1 hPa 0,0 l/m 0 min 0 min 63 W/m 3,2 km/h (1 Bft) 97,87 %
18.03.2020 08:44 8,2 C 9,4 C 8,3 C 95 % 1028,1 hPa 0,0 l/m 0 min 0 min 64 W/m 0,0 km/h (0 Bft) 97,87 %
18.03.2020 08:46 8,3 C 9,4 C 8,3 C 96 % 1028,2 hPa 0,0 l/m 0 min 0 min 68 W/m 0,0 km/h (0 Bft) 100,00 %
18.03.2020 08:48 8,4 C 9,4 C 8,3 C 95 % 1028,1 hPa 0,0 l/m 0 min 0 min 94 W/m 0,0 km/h (0 Bft) 100,00 %
18.03.2020 08:50 8,5 C 9,4 C 8,9 C 95 % 1028,2 hPa 0,0 l/m 2 min 0 min 257 W/m 3,2 km/h (1 Bft) 97,83 %
18.03.2020 08:52 8,6 C 10,6 C 8,9 C 95 % 1028,2 hPa 0,0 l/m 2 min 0 min 311 W/m 6,4 km/h (2 Bft) 97,87 %
18.03.2020 08:54 8,7 C 12,8 C 8,9 C 95 % 1028,2 hPa 0,0 l/m 2 min 0 min 325 W/m 0,0 km/h (0 Bft) 97,87 %
18.03.2020 08:56 8,8 C 13,3 C 8,9 C 95 % 1028,2 hPa 0,0 l/m 2 min 0 min 328 W/m 0,0 km/h (0 Bft) 100,00 %
18.03.2020 08:58 8,9 C 13,9 C 8,9 C 95 % 1028,2 hPa 0,0 l/m 2 min 0 min 335 W/m 0,0 km/h (0 Bft) 97,87 %
18.03.2020 09:00 9,1 C 14,4 C 9,4 C 95 % 1028,2 hPa 0,0 l/m 2 min 0 min 343 W/m 0,0 km/h (0 Bft) 100,00 %
18.03.2020 09:02 9,3 C 14,4 C 9,4 C 95 % 1028,2 hPa 0,0 l/m 2 min 0 min 357 W/m 0,0 km/h (0 Bft) 100,00 %
18.03.2020 09:04 9,4 C 15,0 C 9,4 C 95 % 1028,2 hPa 0,0 l/m 2 min 0 min 359 W/m 0,0 km/h (0 Bft) 100,00 %
18.03.2020 09:06 9,6 C 15,0 C 9,4 C 95 % 1028,2 hPa 0,0 l/m 2 min 0 min 356 W/m 3,2 km/h (1 Bft) 97,87 %
18.03.2020 09:08 9,6 C 13,9 C 10,0 C 95 % 1028,2 hPa 0,0 l/m 2 min 0 min 345 W/m 0,0 km/h (0 Bft) 47,37 %
18.03.2020 09:10 9,9 C 13,9 C 10,0 C 94 % 1028,2 hPa 0,0 l/m 2 min 0 min 347 W/m 6,4 km/h (2 Bft) 100,00 %
18.03.2020 09:12 10,1 C 13,9 C 10,0 C 94 % 1028,2 hPa 0,0 l/m 2 min 0 min 350 W/m 19,3 km/h (3 Bft) 100,00 %
18.03.2020 09:14 10,3 C 13,9 C 11,1 C 93 % 1028,2 hPa 0,0 l/m 2 min 0 min 348 W/m 16,1 km/h (3 Bft) 95,74 %
18.03.2020 09:16 10,4 C 13,9 C 12,8 C 92 % 1028,2 hPa 0,0 l/m 2 min 0 min 338 W/m 6,4 km/h (2 Bft) 97,87 %
18.03.2020 09:18 10,6 C 13,9 C 12,8 C 91 % 1028,1 hPa 0,0 l/m 2 min 0 min 352 W/m 22,5 km/h (4 Bft) 97,96 %
18.03.2020 09:20 10,7 C 13,9 C 12,8 C 90 % 1028,2 hPa 0,0 l/m 2 min 0 min 364 W/m 22,5 km/h (4 Bft) 97,83 %
18.03.2020 09:22 10,8 C 15,0 C 13,9 C 88 % 1028,2 hPa 0,0 l/m 2 min 0 min 386 W/m 3,2 km/h (1 Bft) 97,87 %
18.03.2020 09:24 10,9 C 15,0 C 14,4 C 88 % 1028,3 hPa 0,0 l/m 2 min 0 min 388 W/m 6,4 km/h (2 Bft) 97,87 %
18.03.2020 09:26 11,1 C 15,0 C 15,0 C 87 % 1028,2 hPa 0,0 l/m 2 min 0 min 375 W/m 3,2 km/h (1 Bft) 95,74 %
18.03.2020 09:28 11,2 C 15,6 C 15,0 C 86 % 1028,1 hPa 0,0 l/m 2 min 0 min 374 W/m 3,2 km/h (1 Bft) 97,87 %
18.03.2020 09:30 11,3 C 15,6 C 15,0 C 85 % 1028,2 hPa 0,0 l/m 2 min 0 min 401 W/m 6,4 km/h (2 Bft) 97,87 %
18.03.2020 09:32 11,4 C 15,6 C 15,0 C 84 % 1028,2 hPa 0,0 l/m 2 min 0 min 415 W/m 0,0 km/h (0 Bft) 95,65 %
18.03.2020 09:34 11,6 C 16,1 C 15,6 C 83 % 1028,2 hPa 0,0 l/m 2 min 0 min 417 W/m 3,2 km/h (1 Bft) 95,74 %
18.03.2020 09:36 11,7 C 15,6 C 15,0 C 82 % 1028,2 hPa 0,0 l/m 2 min 0 min 404 W/m 0,0 km/h (0 Bft) 97,87 %
18.03.2020 09:38 11,8 C 15,6 C 15,0 C 82 % 1028,1 hPa 0,0 l/m 2 min 0 min 405 W/m 3,2 km/h (1 Bft) 97,87 %
18.03.2020 09:40 11,9 C 16,1 C 15,0 C 81 % 1028,1 hPa 0,0 l/m 2 min 0 min 401 W/m 3,2 km/h (1 Bft) 97,87 %
18.03.2020 09:42 12,0 C 15,6 C 15,0 C 81 % 1028,2 hPa 0,0 l/m 2 min 0 min 401 W/m 25,7 km/h (4 Bft) 95,65 %
18.03.2020 09:44 12,1 C 15,6 C 14,4 C 80 % 1028,2 hPa 0,0 l/m 2 min 0 min 396 W/m 22,5 km/h (4 Bft) 97,87 %
18.03.2020 09:46 12,1 C 15,6 C 14,4 C 79 % 1028,2 hPa 0,0 l/m 2 min 0 min 393 W/m 0,0 km/h (0 Bft) 97,87 %
18.03.2020 09:48 12,2 C 15,0 C 13,9 C 79 % 1028,2 hPa 0,0 l/m 2 min 0 min 391 W/m 3,2 km/h (1 Bft) 97,87 %
18.03.2020 09:50 12,3 C 15,0 C 13,3 C 78 % 1028,2 hPa 0,0 l/m 2 min 0 min 397 W/m 0,0 km/h (0 Bft) 97,87 %
18.03.2020 09:52 12,3 C 15,6 C 13,3 C 78 % 1028,1 hPa 0,0 l/m 2 min 0 min 401 W/m 6,4 km/h (2 Bft) 97,87 %
18.03.2020 09:54 12,4 C 15,6 C 13,3 C 77 % 1028,2 hPa 0,0 l/m 2 min 0 min 414 W/m 19,3 km/h (3 Bft) 93,48 %
18.03.2020 09:56 12,4 C 15,6 C 12,8 C 76 % 1028,2 hPa 0,0 l/m 2 min 0 min 430 W/m 0,0 km/h (0 Bft) 97,87 %
18.03.2020 09:58 12,6 C 16,1 C 12,8 C 75 % 1028,2 hPa 0,0 l/m 2 min 0 min 451 W/m 0,0 km/h (0 Bft) 97,87 %
18.03.2020 10:00 12,6 C 16,1 C 12,2 C 75 % 1028,2 hPa 0,0 l/m 2 min 0 min 456 W/m 0,0 km/h (0 Bft) 100,00 %
18.03.2020 10:02 12,7 C 16,1 C 12,2 C 75 % 1028,2 hPa 0,0 l/m 2 min 0 min 465 W/m 3,2 km/h (1 Bft) 100,00 %
18.03.2020 10:04 12,7 C 16,1 C 12,2 C 74 % 1028,2 hPa 0,0 l/m 2 min 0 min 459 W/m 16,1 km/h (3 Bft) 100,00 %
18.03.2020 10:06 12,8 C 16,7 C 12,2 C 73 % 1028,2 hPa 0,0 l/m 2 min 0 min 484 W/m 3,2 km/h (1 Bft) 100,00 %
18.03.2020 10:08 12,9 C 17,2 C 12,8 C 74 % 1028,3 hPa 0,0 l/m 2 min 0 min 480 W/m 3,2 km/h (1 Bft) 100,00 %
18.03.2020 10:10 13,0 C 18,3 C 12,8 C 74 % 1028,3 hPa 0,0 l/m 2 min 0 min 500 W/m 3,2 km/h (1 Bft) 97,87 %
18.03.2020 10:12 13,1 C 18,3 C 12,8 C 74 % 1028,3 hPa 0,0 l/m 2 min 0 min 511 W/m 9,7 km/h (2 Bft) 100,00 %
18.03.2020 10:14 13,2 C 17,2 C 12,8 C 72 % 1028,3 hPa 0,0 l/m 2 min 0 min 498 W/m 12,9 km/h (3 Bft) 100,00 %
18.03.2020 10:16 13,3 C 17,8 C 12,8 C 70 % 1028,3 hPa 0,0 l/m 2 min 0 min 520 W/m 12,9 km/h (3 Bft) 100,00 %
18.03.2020 10:18 13,4 C 17,2 C 12,8 C 70 % 1028,3 hPa 0,0 l/m 2 min 0 min 504 W/m 6,4 km/h (2 Bft) 100,00 %
18.03.2020 10:20 13,5 C 16,7 C 12,8 C 69 % 1028,3 hPa 0,0 l/m 2 min 0 min 472 W/m 12,9 km/h (3 Bft) 97,87 %
18.03.2020 10:22 13,6 C 17,8 C 12,8 C 69 % 1028,2 hPa 0,0 l/m 2 min 0 min 453 W/m 6,4 km/h (2 Bft) 97,87 %
18.03.2020 10:24 13,6 C 18,3 C 12,8 C 70 % 1028,2 hPa 0,0 l/m 2 min 0 min 507 W/m 6,4 km/h (2 Bft) 97,87 %
18.03.2020 10:26 13,8 C 18,9 C 13,3 C 70 % 1028,2 hPa 0,0 l/m 2 min 0 min 503 W/m 6,4 km/h (2 Bft) 97,87 %
18.03.2020 10:28 13,8 C 17,2 C 13,3 C 67 % 1028,3 hPa 0,0 l/m 2 min 0 min 504 W/m 22,5 km/h (4 Bft) 97,83 %
18.03.2020 10:30 13,9 C 17,2 C 13,3 C 67 % 1028,1 hPa 0,0 l/m 2 min 0 min 508 W/m 22,5 km/h (4 Bft) 97,87 %
18.03.2020 10:32 13,9 C 18,3 C 13,3 C 67 % 1028,2 hPa 0,0 l/m 2 min 0 min 534 W/m 12,9 km/h (3 Bft) 97,87 %
18.03.2020 10:34 14,1 C 18,3 C 13,3 C 66 % 1028,2 hPa 0,0 l/m 2 min 0 min 533 W/m 3,2 km/h (1 Bft) 95,74 %
18.03.2020 10:36 14,1 C 18,9 C 13,3 C 67 % 1028,1 hPa 0,0 l/m 2 min 0 min 557 W/m 6,4 km/h (2 Bft) 97,87 %
18.03.2020 10:38 14,2 C 18,9 C 13,3 C 67 % 1028,0 hPa 0,0 l/m 2 min 0 min 556 W/m 9,7 km/h (2 Bft) 97,87 %
18.03.2020 10:40 14,3 C 19,4 C 13,9 C 66 % 1028,1 hPa 0,0 l/m 2 min 0 min 568 W/m 6,4 km/h (2 Bft) 97,83 %
18.03.2020 10:42 14,3 C 20,0 C 13,9 C 67 % 1028,0 hPa 0,0 l/m 2 min 0 min 572 W/m 6,4 km/h (2 Bft) 97,87 %
18.03.2020 10:44 14,4 C 20,6 C 13,9 C 67 % 1028,0 hPa 0,0 l/m 2 min 0 min 547 W/m 0,0 km/h (0 Bft) 95,74 %
18.03.2020 10:46 14,6 C 20,6 C 13,9 C 67 % 1028,1 hPa 0,0 l/m 2 min 0 min 536 W/m 0,0 km/h (0 Bft) 97,87 %
18.03.2020 10:48 14,7 C 20,6 C 13,9 C 67 % 1028,1 hPa 0,0 l/m 2 min 0 min 564 W/m 0,0 km/h (0 Bft) 97,87 %
18.03.2020 10:50 14,8 C 20,6 C 13,9 C 66 % 1028,0 hPa 0,0 l/m 2 min 0 min 588 W/m 16,1 km/h (3 Bft) 95,74 %
18.03.2020 10:52 14,9 C 20,0 C 13,9 C 66 % 1028,0 hPa 0,0 l/m 2 min 0 min 591 W/m 19,3 km/h (3 Bft) 97,83 %
18.03.2020 10:54 15,1 C 20,0 C 13,9 C 65 % 1028,0 hPa 0,0 l/m 2 min 0 min 605 W/m 6,4 km/h (2 Bft) 97,87 %
18.03.2020 10:56 15,2 C 20,0 C 13,9 C 65 % 1028,0 hPa 0,0 l/m 2 min 0 min 603 W/m 16,1 km/h (3 Bft) 97,87 %
18.03.2020 10:58 15,2 C 19,4 C 13,9 C 65 % 1028,0 hPa 0,0 l/m 2 min 0 min 596 W/m 6,4 km/h (2 Bft) 97,87 %
18.03.2020 11:00 15,3 C 19,4 C 13,9 C 64 % 1028,0 hPa 0,0 l/m 2 min 0 min 598 W/m 19,3 km/h (3 Bft) 100,00 %
18.03.2020 11:02 15,3 C 19,4 C 14,4 C 64 % 1028,0 hPa 0,0 l/m 2 min 0 min 604 W/m 22,5 km/h (4 Bft) 100,00 %
18.03.2020 11:04 15,4 C 20,6 C 14,4 C 64 % 1027,9 hPa 0,0 l/m 2 min 0 min 623 W/m 3,2 km/h (1 Bft) 97,83 %
18.03.2020 11:06 15,5 C 20,0 C 14,4 C 65 % 1028,0 hPa 0,0 l/m 2 min 0 min 628 W/m 22,5 km/h (4 Bft) 100,00 %
18.03.2020 11:08 15,6 C 18,9 C 14,4 C 62 % 1027,9 hPa 0,0 l/m 2 min 0 min 616 W/m 35,4 km/h (5 Bft) 100,00 %
18.03.2020 11:10 15,6 C 19,4 C 14,4 C 62 % 1028,0 hPa 0,0 l/m 2 min 0 min 628 W/m 16,1 km/h (3 Bft) 100,00 %
18.03.2020 11:12 15,7 C 20,0 C 14,4 C 62 % 1028,0 hPa 0,0 l/m 2 min 0 min 633 W/m 3,2 km/h (1 Bft) 97,87 %
18.03.2020 11:14 15,7 C 20,0 C 14,4 C 63 % 1028,0 hPa 0,0 l/m 2 min 0 min 630 W/m 16,1 km/h (3 Bft) 100,00 %
18.03.2020 11:16 15,7 C 20,6 C 14,4 C 63 % 1028,0 hPa 0,0 l/m 2 min 0 min 624 W/m 0,0 km/h (0 Bft) 97,83 %
18.03.2020 11:18 15,8 C 20,6 C 14,4 C 63 % 1028,0 hPa 0,0 l/m 2 min 0 min 627 W/m 3,2 km/h (1 Bft) 100,00 %
18.03.2020 11:20 15,8 C 21,1 C 15,0 C 63 % 1028,0 hPa 0,0 l/m 2 min 0 min 637 W/m 9,7 km/h (2 Bft) 100,00 %
18.03.2020 11:22 15,9 C 21,1 C 14,4 C 62 % 1028,0 hPa 0,0 l/m 2 min 0 min 636 W/m 19,3 km/h (3 Bft) 97,87 %
18.03.2020 11:24 16,0 C 21,1 C 14,4 C 62 % 1028,0 hPa 0,0 l/m 2 min 0 min 636 W/m 9,7 km/h (2 Bft) 100,00 %
18.03.2020 11:26 16,1 C 20,6 C 15,0 C 61 % 1028,0 hPa 0,0 l/m 2 min 0 min 638 W/m 6,4 km/h (2 Bft) 100,00 %
18.03.2020 11:28 16,1 C 20,6 C 15,0 C 61 % 1028,0 hPa 0,0 l/m 2 min 0 min 642 W/m 9,7 km/h (2 Bft) 100,00 %
18.03.2020 11:30 16,1 C 21,1 C 15,0 C 62 % 1028,0 hPa 0,0 l/m 2 min 0 min 641 W/m 6,4 km/h (2 Bft) 97,87 %
18.03.2020 11:32 16,2 C 20,0 C 15,0 C 60 % 1028,0 hPa 0,0 l/m 2 min 0 min 646 W/m 19,3 km/h (3 Bft) 100,00 %
18.03.2020 11:34 16,2 C 20,0 C 15,0 C 60 % 1028,0 hPa 0,0 l/m 2 min 0 min 658 W/m 12,9 km/h (3 Bft) 100,00 %
18.03.2020 11:36 16,2 C 20,6 C 15,0 C 60 % 1028,0 hPa 0,0 l/m 2 min 0 min 663 W/m 22,5 km/h (4 Bft) 100,00 %
18.03.2020 11:38 16,3 C 21,1 C 15,0 C 59 % 1028,0 hPa 0,0 l/m 2 min 0 min 666 W/m 16,1 km/h (3 Bft) 100,00 %
18.03.2020 11:40 16,3 C 21,1 C 15,0 C 59 % 1027,9 hPa 0,0 l/m 2 min 0 min 660 W/m 12,9 km/h (3 Bft) 97,83 %
18.03.2020 11:42 16,4 C 20,0 C 15,0 C 58 % 1027,9 hPa 0,0 l/m 2 min 0 min 653 W/m 19,3 km/h (3 Bft) 97,87 %
18.03.2020 11:44 16,4 C 20,6 C 15,0 C 58 % 1027,9 hPa 0,0 l/m 2 min 0 min 659 W/m 9,7 km/h (2 Bft) 100,00 %
18.03.2020 11:46 16,4 C 21,1 C 15,0 C 57 % 1027,9 hPa 0,0 l/m 2 min 0 min 660 W/m 3,2 km/h (1 Bft) 100,00 %
18.03.2020 11:48 16,5 C 21,7 C 15,0 C 57 % 1027,9 hPa 0,0 l/m 2 min 0 min 658 W/m 0,0 km/h (0 Bft) 97,87 %
18.03.2020 11:50 16,6 C 22,8 C 15,6 C 57 % 1027,9 hPa 0,0 l/m 2 min 0 min 661 W/m 0,0 km/h (0 Bft) 100,00 %
18.03.2020 11:52 16,6 C 22,8 C 15,6 C 57 % 1027,9 hPa 0,0 l/m 2 min 0 min 667 W/m 0,0 km/h (0 Bft) 97,87 %
18.03.2020 11:54 16,7 C 21,7 C 15,6 C 56 % 1027,8 hPa 0,0 l/m 2 min 0 min 669 W/m 22,5 km/h (4 Bft) 97,87 %
18.03.2020 11:56 16,8 C 21,1 C 15,6 C 55 % 1027,8 hPa 0,0 l/m 2 min 0 min 679 W/m 9,7 km/h (2 Bft) 97,87 %
18.03.2020 11:58 16,8 C 21,1 C 15,6 C 55 % 1027,8 hPa 0,0 l/m 2 min 0 min 676 W/m 12,9 km/h (3 Bft) 93,62 %
18.03.2020 12:00 16,8 C 20,6 C 15,6 C 54 % 1027,8 hPa 0,0 l/m 2 min 0 min 670 W/m 22,5 km/h (4 Bft) 95,74 %
18.03.2020 12:02 16,8 C 20,6 C 15,6 C 54 % 1027,7 hPa 0,0 l/m 2 min 0 min 678 W/m 16,1 km/h (3 Bft) 97,83 %
18.03.2020 12:04 16,8 C 21,1 C 15,6 C 54 % 1027,8 hPa 0,0 l/m 2 min 0 min 679 W/m 3,2 km/h (1 Bft) 95,74 %
18.03.2020 12:08 16,9 C 21,1 C 15,6 C 53 % 1027,8 hPa 0,0 l/m 4 min 0 min 678 W/m 22,5 km/h (4 Bft) 95,74 %
18.03.2020 12:10 16,9 C 21,1 C 15,6 C 54 % 1027,7 hPa 0,0 l/m 2 min 0 min 685 W/m 3,2 km/h (1 Bft) 95,74 %
18.03.2020 12:12 16,9 C 21,7 C 15,6 C 55 % 1027,7 hPa 0,0 l/m 2 min 0 min 682 W/m 9,7 km/h (2 Bft) 95,92 %
18.03.2020 12:14 17,0 C 21,1 C 15,6 C 53 % 1027,7 hPa 0,0 l/m 2 min 0 min 683 W/m 16,1 km/h (3 Bft) 97,87 %
18.03.2020 12:16 17,0 C 21,1 C 15,6 C 54 % 1027,6 hPa 0,0 l/m 2 min 0 min 683 W/m 6,4 km/h (2 Bft) 93,62 %
18.03.2020 12:18 17,1 C 22,2 C 16,1 C 55 % 1027,6 hPa 0,0 l/m 2 min 0 min 685 W/m 0,0 km/h (0 Bft) 93,62 %
18.03.2020 12:20 17,2 C 22,2 C 16,1 C 55 % 1027,7 hPa 0,0 l/m 2 min 0 min 683 W/m 0,0 km/h (0 Bft) 97,87 %
18.03.2020 12:22 17,2 C 22,2 C 16,1 C 53 % 1027,7 hPa 0,0 l/m 2 min 0 min 688 W/m 0,0 km/h (0 Bft) 97,87 %
18.03.2020 12:24 17,3 C 21,1 C 16,1 C 53 % 1027,8 hPa 0,0 l/m 2 min 0 min 690 W/m 19,3 km/h (3 Bft) 97,87 %
18.03.2020 12:26 17,2 C 20,6 C 16,1 C 52 % 1027,8 hPa 0,0 l/m 2 min 0 min 687 W/m 32,2 km/h (5 Bft) 95,65 %
18.03.2020 12:28 17,2 C 20,0 C 15,6 C 52 % 1027,8 hPa 0,0 l/m 2 min 0 min 688 W/m 35,4 km/h (5 Bft) 95,74 %
18.03.2020 12:30 17,3 C 21,7 C 16,1 C 53 % 1027,7 hPa 0,0 l/m 2 min 0 min 691 W/m 0,0 km/h (0 Bft) 97,87 %
18.03.2020 12:32 17,3 C 21,7 C 16,1 C 52 % 1027,6 hPa 0,0 l/m 2 min 0 min 693 W/m 9,7 km/h (2 Bft) 97,87 %
18.03.2020 12:34 17,3 C 21,7 C 16,1 C 52 % 1027,7 hPa 0,0 l/m 2 min 0 min 688 W/m 12,9 km/h (3 Bft) 95,74 %
18.03.2020 12:36 17,4 C 22,8 C 16,7 C 52 % 1027,6 hPa 0,0 l/m 2 min 0 min 690 W/m 16,1 km/h (3 Bft) 95,74 %
18.03.2020 12:38 17,4 C 22,2 C 16,7 C 50 % 1027,6 hPa 0,0 l/m 2 min 0 min 690 W/m 6,4 km/h (2 Bft) 93,48 %
18.03.2020 12:40 17,5 C 22,2 C 17,8 C 50 % 1027,6 hPa 0,0 l/m 2 min 0 min 692 W/m 12,9 km/h (3 Bft) 95,74 %
18.03.2020 12:42 17,6 C 21,7 C 19,4 C 49 % 1027,6 hPa 0,0 l/m 2 min 0 min 693 W/m 12,9 km/h (3 Bft) 93,62 %
18.03.2020 12:44 17,6 C 22,2 C 21,1 C 51 % 1027,5 hPa 0,0 l/m 2 min 0 min 689 W/m 0,0 km/h (0 Bft) 95,74 %
18.03.2020 12:46 17,6 C 21,1 C 21,1 C 50 % 1027,5 hPa 0,0 l/m 2 min 0 min 690 W/m 22,5 km/h (4 Bft) 95,74 %
18.03.2020 12:48 17,6 C 21,7 C 21,7 C 52 % 1027,5 hPa 0,0 l/m 2 min 0 min 686 W/m 22,5 km/h (4 Bft) 95,65 %
18.03.2020 12:50 17,6 C 21,7 C 22,2 C 50 % 1027,5 hPa 0,0 l/m 2 min 0 min 687 W/m 19,3 km/h (3 Bft) 93,62 %
18.03.2020 12:52 17,6 C 21,7 C 22,2 C 50 % 1027,5 hPa 0,0 l/m 2 min 0 min 691 W/m 19,3 km/h (3 Bft) 95,74 %
18.03.2020 12:54 17,6 C 21,1 C 21,7 C 50 % 1027,5 hPa 0,0 l/m 2 min 0 min 681 W/m 25,7 km/h (4 Bft) 95,83 %
18.03.2020 12:56 17,6 C 21,7 C 22,2 C 50 % 1027,4 hPa 0,0 l/m 2 min 0 min 658 W/m 29,0 km/h (5 Bft) 93,62 %
18.03.2020 12:58 17,7 C 21,7 C 22,8 C 51 % 1027,4 hPa 0,0 l/m 2 min 0 min 674 W/m 12,9 km/h (3 Bft) 95,74 %
18.03.2020 13:00 17,7 C 22,2 C 23,3 C 51 % 1027,4 hPa 0,0 l/m 2 min 0 min 682 W/m 16,1 km/h (3 Bft) 95,74 %
18.03.2020 13:02 17,7 C 21,1 C 21,7 C 50 % 1027,3 hPa 0,0 l/m 2 min 0 min 684 W/m 9,7 km/h (2 Bft) 97,87 %
18.03.2020 13:04 17,7 C 21,1 C 21,7 C 50 % 1027,3 hPa 0,0 l/m 2 min 0 min 682 W/m 9,7 km/h (2 Bft) 95,65 %
18.03.2020 13:06 17,7 C 22,2 C 22,8 C 51 % 1027,3 hPa 0,0 l/m 2 min 0 min 685 W/m 9,7 km/h (2 Bft) 95,74 %
18.03.2020 13:08 17,7 C 21,7 C 22,8 C 49 % 1027,2 hPa 0,0 l/m 2 min 0 min 690 W/m 0,0 km/h (0 Bft) 93,62 %
18.03.2020 13:10 17,8 C 22,2 C 22,8 C 49 % 1027,2 hPa 0,0 l/m 2 min 0 min 682 W/m 3,2 km/h (1 Bft) 95,74 %
18.03.2020 13:12 17,7 C 21,7 C 22,8 C 49 % 1027,2 hPa 0,0 l/m 2 min 0 min 682 W/m 6,4 km/h (2 Bft) 93,62 %
18.03.2020 13:14 17,8 C 21,7 C 22,8 C 51 % 1027,1 hPa 0,0 l/m 2 min 0 min 679 W/m 16,1 km/h (3 Bft) 95,74 %
18.03.2020 13:16 17,8 C 21,7 C 23,3 C 51 % 1027,1 hPa 0,0 l/m 2 min 0 min 683 W/m 12,9 km/h (3 Bft) 93,48 %
18.03.2020 13:18 17,8 C 21,1 C 22,2 C 50 % 1027,1 hPa 0,0 l/m 2 min 0 min 688 W/m 16,1 km/h (3 Bft) 95,74 %
18.03.2020 13:20 17,8 C 20,6 C 22,2 C 49 % 1027,1 hPa 0,0 l/m 2 min 0 min 679 W/m 0,0 km/h (0 Bft) 95,74 %
18.03.2020 13:22 17,8 C 20,6 C 21,1 C 49 % 1027,2 hPa 0,0 l/m 2 min 0 min 671 W/m 19,3 km/h (3 Bft) 97,87 %
18.03.2020 13:24 17,8 C 20,6 C 20,0 C 49 % 1027,0 hPa 0,0 l/m 2 min 0 min 678 W/m 29,0 km/h (5 Bft) 95,74 %
18.03.2020 13:26 17,8 C 22,2 C 21,1 C 51 % 1027,0 hPa 0,0 l/m 2 min 0 min 681 W/m 16,1 km/h (3 Bft) 95,65 %
18.03.2020 13:28 17,9 C 23,3 C 21,1 C 52 % 1026,9 hPa 0,0 l/m 2 min 0 min 677 W/m 3,2 km/h (1 Bft) 97,87 %
18.03.2020 13:30 17,9 C 21,1 C 20,0 C 50 % 1027,0 hPa 0,0 l/m 2 min 0 min 677 W/m 25,7 km/h (4 Bft) 97,87 %
18.03.2020 13:32 17,9 C 21,7 C 18,9 C 49 % 1027,0 hPa 0,0 l/m 2 min 0 min 668 W/m 12,9 km/h (3 Bft) 97,87 %
18.03.2020 13:34 17,9 C 21,1 C 18,3 C 49 % 1027,0 hPa 0,0 l/m 2 min 0 min 662 W/m 9,7 km/h (2 Bft) 97,87 %
18.03.2020 13:36 17,9 C 22,2 C 17,8 C 50 % 1026,9 hPa 0,0 l/m 2 min 0 min 656 W/m 9,7 km/h (2 Bft) 97,87 %
18.03.2020 13:38 17,9 C 22,8 C 17,8 C 50 % 1026,9 hPa 0,0 l/m 2 min 0 min 650 W/m 6,4 km/h (2 Bft) 97,83 %
18.03.2020 13:40 18,0 C 21,7 C 17,8 C 49 % 1026,9 hPa 0,0 l/m 2 min 0 min 639 W/m 16,1 km/h (3 Bft) 97,87 %
18.03.2020 13:42 18,0 C 22,2 C 17,8 C 50 % 1026,8 hPa 0,0 l/m 2 min 0 min 632 W/m 3,2 km/h (1 Bft) 97,87 %
18.03.2020 13:44 18,0 C 21,7 C 17,2 C 50 % 1026,9 hPa 0,0 l/m 2 min 0 min 622 W/m 12,9 km/h (3 Bft) 95,74 %
18.03.2020 13:46 18,0 C 21,7 C 17,2 C 50 % 1026,9 hPa 0,0 l/m 2 min 0 min 627 W/m 0,0 km/h (0 Bft) 97,87 %
18.03.2020 13:48 18,0 C 22,2 C 17,2 C 51 % 1026,9 hPa 0,0 l/m 2 min 0 min 635 W/m 0,0 km/h (0 Bft) 97,87 %
18.03.2020 13:50 18,0 C 21,7 C 16,7 C 51 % 1026,8 hPa 0,0 l/m 2 min 0 min 622 W/m 3,2 km/h (1 Bft) 97,83 %
18.03.2020 13:52 18,0 C 21,7 C 16,7 C 51 % 1026,8 hPa 0,0 l/m 2 min 0 min 607 W/m 16,1 km/h (3 Bft) 97,87 %
18.03.2020 13:54 18,0 C 21,7 C 17,2 C 50 % 1026,7 hPa 0,0 l/m 2 min 0 min 610 W/m 12,9 km/h (3 Bft) 100,00 %
18.03.2020 13:56 18,1 C 22,8 C 17,2 C 51 % 1026,8 hPa 0,0 l/m 2 min 0 min 619 W/m 3,2 km/h (1 Bft) 100,00 %
18.03.2020 13:58 18,1 C 22,8 C 17,2 C 51 % 1026,8 hPa 0,0 l/m 2 min 0 min 632 W/m 3,2 km/h (1 Bft) 100,00 %
18.03.2020 14:00 18,2 C 22,8 C 17,2 C 50 % 1026,8 hPa 0,0 l/m 2 min 0 min 633 W/m 9,7 km/h (2 Bft) 100,00 %
18.03.2020 14:02 18,2 C 23,3 C 17,2 C 51 % 1026,7 hPa 0,0 l/m 2 min 0 min 640 W/m 12,9 km/h (3 Bft) 100,00 %
18.03.2020 14:04 18,3 C 23,3 C 17,2 C 51 % 1026,6 hPa 0,0 l/m 2 min 0 min 632 W/m 0,0 km/h (0 Bft) 100,00 %
18.03.2020 14:06 18,3 C 23,3 C 17,2 C 51 % 1026,7 hPa 0,0 l/m 2 min 0 min 634 W/m 0,0 km/h (0 Bft) 100,00 %
18.03.2020 14:08 18,4 C 23,3 C 17,2 C 51 % 1026,6 hPa 0,0 l/m 2 min 0 min 635 W/m 0,0 km/h (0 Bft) 100,00 %
18.03.2020 14:10 18,4 C 23,3 C 17,2 C 50 % 1026,5 hPa 0,0 l/m 2 min 0 min 645 W/m 6,4 km/h (2 Bft) 100,00 %
18.03.2020 14:12 18,5 C 23,3 C 17,2 C 51 % 1026,5 hPa 0,0 l/m 2 min 0 min 625 W/m 12,9 km/h (3 Bft) 100,00 %
18.03.2020 14:14 18,5 C 22,2 C 17,2 C 49 % 1026,6 hPa 0,0 l/m 2 min 0 min 619 W/m 19,3 km/h (3 Bft) 100,00 %
18.03.2020 14:16 18,4 C 21,1 C 17,2 C 50 % 1026,5 hPa 0,0 l/m 2 min 0 min 574 W/m 0,0 km/h (0 Bft) 97,87 %
18.03.2020 14:18 18,4 C 21,7 C 17,2 C 51 % 1026,5 hPa 0,0 l/m 2 min 0 min 512 W/m 0,0 km/h (0 Bft) 100,00 %
18.03.2020 14:20 18,4 C 21,1 C 17,2 C 51 % 1026,5 hPa 0,0 l/m 2 min 0 min 461 W/m 0,0 km/h (0 Bft) 100,00 %
18.03.2020 14:22 18,4 C 21,1 C 17,2 C 51 % 1026,4 hPa 0,0 l/m 2 min 0 min 589 W/m 0,0 km/h (0 Bft) 100,00 %
18.03.2020 14:24 18,3 C 20,6 C 17,2 C 49 % 1026,5 hPa 0,0 l/m 2 min 0 min 595 W/m 32,2 km/h (5 Bft) 97,87 %
18.03.2020 14:26 18,3 C 20,6 C 17,2 C 49 % 1026,5 hPa 0,0 l/m 2 min 0 min 592 W/m 19,3 km/h (3 Bft) 100,00 %
18.03.2020 14:28 18,2 C 21,1 C 17,2 C 49 % 1026,4 hPa 0,0 l/m 2 min 0 min 582 W/m 0,0 km/h (0 Bft) 97,87 %
18.03.2020 14:30 18,2 C 21,1 C 17,2 C 49 % 1026,3 hPa 0,0 l/m 2 min 0 min 537 W/m 0,0 km/h (0 Bft) 100,00 %
18.03.2020 14:32 18,2 C 21,1 C 17,2 C 51 % 1026,4 hPa 0,0 l/m 2 min 0 min 545 W/m 16,1 km/h (3 Bft) 100,00 %
18.03.2020 14:34 18,2 C 20,6 C 17,2 C 51 % 1026,4 hPa 0,0 l/m 2 min 0 min 571 W/m 19,3 km/h (3 Bft) 100,00 %
18.03.2020 14:39 18,1 C 21,1 C 16,7 C 52 % 1026,3 hPa 0,0 l/m 5 min 0 min 565 W/m 3,2 km/h (1 Bft) 100,00 %
18.03.2020 14:40 18,1 C 21,7 C 17,2 C 52 % 1026,3 hPa 0,0 l/m 1 min 0 min 553 W/m 0,0 km/h (0 Bft) 95,65 %
18.03.2020 14:42 18,1 C 21,7 C 17,2 C 53 % 1026,2 hPa 0,0 l/m 2 min 0 min 499 W/m 6,4 km/h (2 Bft) 97,87 %
18.03.2020 14:44 18,1 C 21,1 C 17,2 C 52 % 1026,3 hPa 0,0 l/m 2 min 0 min 527 W/m 16,1 km/h (3 Bft) 97,87 %
18.03.2020 14:46 18,1 C 21,1 C 17,2 C 52 % 1026,2 hPa 0,0 l/m 2 min 0 min 545 W/m 0,0 km/h (0 Bft) 97,87 %
18.03.2020 14:48 18,1 C 21,1 C 17,2 C 52 % 1026,3 hPa 0,0 l/m 2 min 0 min 556 W/m 3,2 km/h (1 Bft) 97,83 %
18.03.2020 14:50 18,1 C 20,6 C 16,7 C 51 % 1026,3 hPa 0,0 l/m 2 min 0 min 560 W/m 19,3 km/h (3 Bft) 97,87 %
18.03.2020 14:52 18,1 C 21,1 C 16,7 C 52 % 1026,2 hPa 0,0 l/m 2 min 0 min 563 W/m 16,1 km/h (3 Bft) 93,62 %
18.03.2020 14:54 18,1 C 22,2 C 17,2 C 53 % 1026,2 hPa 0,0 l/m 2 min 0 min 561 W/m 16,1 km/h (3 Bft) 97,87 %
18.03.2020 14:56 18,1 C 22,2 C 17,2 C 53 % 1026,1 hPa 0,0 l/m 2 min 0 min 554 W/m 16,1 km/h (3 Bft) 97,87 %
18.03.2020 14:58 18,2 C 21,7 C 17,2 C 53 % 1026,3 hPa 0,0 l/m 2 min 0 min 548 W/m 3,2 km/h (1 Bft) 95,74 %
18.03.2020 15:00 18,2 C 21,1 C 17,2 C 52 % 1026,1 hPa 0,0 l/m 2 min 0 min 533 W/m 12,9 km/h (3 Bft) 97,83 %
18.03.2020 15:02 18,2 C 21,1 C 17,2 C 52 % 1026,1 hPa 0,0 l/m 2 min 0 min 525 W/m 3,2 km/h (1 Bft) 97,87 %
18.03.2020 15:04 18,2 C 21,7 C 17,2 C 52 % 1026,1 hPa 0,0 l/m 2 min 0 min 522 W/m 6,4 km/h (2 Bft) 95,74 %
18.03.2020 15:06 18,2 C 21,7 C 17,2 C 54 % 1026,0 hPa 0,0 l/m 2 min 0 min 524 W/m 3,2 km/h (1 Bft) 95,74 %
18.03.2020 15:08 18,3 C 22,8 C 17,2 C 54 % 1026,0 hPa 0,0 l/m 2 min 0 min 525 W/m 0,0 km/h (0 Bft) 93,62 %
18.03.2020 15:10 18,3 C 22,8 C 17,2 C 53 % 1026,1 hPa 0,0 l/m 2 min 0 min 530 W/m 3,2 km/h (1 Bft) 95,74 %
18.03.2020 15:12 18,4 C 22,2 C 17,2 C 52 % 1026,1 hPa 0,0 l/m 2 min 0 min 531 W/m 16,1 km/h (3 Bft) 95,65 %
18.03.2020 15:14 18,4 C 22,8 C 17,2 C 53 % 1026,0 hPa 0,0 l/m 2 min 0 min 525 W/m 0,0 km/h (0 Bft) 95,74 %
18.03.2020 15:16 18,5 C 21,7 C 17,2 C 52 % 1026,0 hPa 0,0 l/m 2 min 0 min 505 W/m 6,4 km/h (2 Bft) 93,62 %
18.03.2020 15:18 18,4 C 20,6 C 17,2 C 52 % 1026,0 hPa 0,0 l/m 2 min 0 min 500 W/m 16,1 km/h (3 Bft) 95,74 %
18.03.2020 15:20 18,4 C 21,1 C 16,7 C 52 % 1026,0 hPa 0,0 l/m 2 min 0 min 496 W/m 3,2 km/h (1 Bft) 95,74 %
18.03.2020 15:22 18,4 C 21,1 C 17,2 C 52 % 1026,0 hPa 0,0 l/m 2 min 0 min 494 W/m 0,0 km/h (0 Bft) 95,65 %
18.03.2020 15:24 18,4 C 21,7 C 17,2 C 52 % 1026,0 hPa 0,0 l/m 2 min 0 min 492 W/m 0,0 km/h (0 Bft) 95,74 %
18.03.2020 15:26 18,4 C 22,2 C 17,8 C 52 % 1025,9 hPa 0,0 l/m 2 min 0 min 493 W/m 0,0 km/h (0 Bft) 95,74 %
18.03.2020 15:28 18,4 C 21,1 C 17,8 C 52 % 1025,9 hPa 0,0 l/m 2 min 0 min 492 W/m 12,9 km/h (3 Bft) 97,87 %
18.03.2020 15:30 18,5 C 21,1 C 17,8 C 53 % 1025,9 hPa 0,0 l/m 2 min 0 min 482 W/m 12,9 km/h (3 Bft) 97,87 %
18.03.2020 15:32 18,5 C 21,1 C 18,9 C 53 % 1025,9 hPa 0,0 l/m 2 min 0 min 473 W/m 0,0 km/h (0 Bft) 97,87 %
18.03.2020 15:34 18,5 C 22,2 C 20,0 C 55 % 1025,9 hPa 0,0 l/m 2 min 0 min 469 W/m 0,0 km/h (0 Bft) 95,74 %
18.03.2020 15:36 18,6 C 22,2 C 20,6 C 54 % 1025,9 hPa 0,0 l/m 2 min 0 min 464 W/m 0,0 km/h (0 Bft) 97,83 %
18.03.2020 15:38 18,6 C 22,2 C 20,0 C 53 % 1025,9 hPa 0,0 l/m 2 min 0 min 448 W/m 0,0 km/h (0 Bft) 97,87 %
18.03.2020 15:40 18,6 C 22,2 C 20,0 C 54 % 1025,8 hPa 0,0 l/m 2 min 0 min 441 W/m 0,0 km/h (0 Bft) 97,87 %
18.03.2020 15:42 18,6 C 22,2 C 19,4 C 53 % 1025,9 hPa 0,0 l/m 2 min 0 min 446 W/m 0,0 km/h (0 Bft) 97,87 %
18.03.2020 15:44 18,7 C 22,2 C 20,0 C 53 % 1025,9 hPa 0,0 l/m 2 min 0 min 443 W/m 0,0 km/h (0 Bft) 95,74 %
18.03.2020 15:46 18,7 C 22,2 C 20,0 C 53 % 1025,9 hPa 0,0 l/m 2 min 0 min 441 W/m 0,0 km/h (0 Bft) 100,00 %
18.03.2020 15:48 18,7 C 22,2 C 18,3 C 54 % 1025,9 hPa 0,0 l/m 2 min 0 min 427 W/m 3,2 km/h (1 Bft) 100,00 %
18.03.2020 15:50 18,8 C 21,7 C 17,8 C 53 % 1025,9 hPa 0,0 l/m 2 min 0 min 429 W/m 12,9 km/h (3 Bft) 97,87 %
18.03.2020 15:52 18,8 C 21,7 C 17,8 C 52 % 1025,8 hPa 0,0 l/m 2 min 0 min 430 W/m 0,0 km/h (0 Bft) 100,00 %
18.03.2020 15:54 18,8 C 21,1 C 17,8 C 52 % 1025,9 hPa 0,0 l/m 2 min 0 min 427 W/m 0,0 km/h (0 Bft) 100,00 %
18.03.2020 15:56 18,8 C 21,1 C 18,3 C 52 % 1025,9 hPa 0,0 l/m 2 min 0 min 422 W/m 0,0 km/h (0 Bft) 100,00 %
18.03.2020 15:58 18,7 C 21,1 C 18,3 C 52 % 1025,8 hPa 0,0 l/m 2 min 0 min 417 W/m 0,0 km/h (0 Bft) 100,00 %
18.03.2020 16:00 18,7 C 21,1 C 18,3 C 52 % 1025,8 hPa 0,0 l/m 2 min 0 min 411 W/m 19,3 km/h (3 Bft) 97,87 %
18.03.2020 16:02 18,7 C 21,1 C 18,3 C 53 % 1025,7 hPa 0,0 l/m 2 min 0 min 395 W/m 3,2 km/h (1 Bft) 100,00 %
18.03.2020 16:04 18,7 C 21,7 C 19,4 C 54 % 1025,7 hPa 0,0 l/m 2 min 0 min 401 W/m 0,0 km/h (0 Bft) 100,00 %
18.03.2020 16:06 18,7 C 21,7 C 21,1 C 53 % 1025,7 hPa 0,0 l/m 2 min 0 min 390 W/m 3,2 km/h (1 Bft) 100,00 %
18.03.2020 16:08 18,7 C 21,1 C 21,1 C 52 % 1025,7 hPa 0,0 l/m 2 min 0 min 371 W/m 3,2 km/h (1 Bft) 97,87 %
18.03.2020 16:10 18,7 C 20,6 C 20,6 C 52 % 1025,7 hPa 0,0 l/m 2 min 0 min 382 W/m 6,4 km/h (2 Bft) 100,00 %
18.03.2020 16:12 18,6 C 21,1 C 20,0 C 52 % 1025,7 hPa 0,0 l/m 2 min 0 min 377 W/m 9,7 km/h (2 Bft) 100,00 %
18.03.2020 16:14 18,6 C 20,0 C 20,6 C 52 % 1025,7 hPa 0,0 l/m 2 min 0 min 363 W/m 16,1 km/h (3 Bft) 100,00 %
18.03.2020 16:16 18,6 C 20,0 C 20,6 C 52 % 1025,6 hPa 0,0 l/m 2 min 0 min 367 W/m 0,0 km/h (0 Bft) 97,87 %
18.03.2020 16:18 18,5 C 20,0 C 21,1 C 53 % 1025,7 hPa 0,0 l/m 2 min 0 min 356 W/m 12,9 km/h (3 Bft) 97,87 %
18.03.2020 16:20 18,5 C 19,4 C 20,6 C 52 % 1025,6 hPa 0,0 l/m 2 min 0 min 345 W/m 0,0 km/h (0 Bft) 97,87 %
18.03.2020 16:22 18,4 C 19,4 C 20,0 C 52 % 1025,6 hPa 0,0 l/m 2 min 0 min 324 W/m 0,0 km/h (0 Bft) 100,00 %
18.03.2020 16:24 18,4 C 20,6 C 20,0 C 54 % 1025,5 hPa 0,0 l/m 2 min 0 min 307 W/m 0,0 km/h (0 Bft) 100,00 %
18.03.2020 16:26 18,4 C 20,6 C 18,9 C 54 % 1025,5 hPa 0,0 l/m 2 min 0 min 295 W/m 0,0 km/h (0 Bft) 100,00 %
18.03.2020 16:28 18,4 C 19,4 C 17,8 C 53 % 1025,5 hPa 0,0 l/m 2 min 0 min 293 W/m 0,0 km/h (0 Bft) 97,87 %
18.03.2020 16:30 18,3 C 19,4 C 17,2 C 52 % 1025,5 hPa 0,0 l/m 2 min 0 min 307 W/m 0,0 km/h (0 Bft) 97,87 %
18.03.2020 16:32 18,3 C 19,4 C 17,2 C 53 % 1025,5 hPa 0,0 l/m 2 min 0 min 302 W/m 0,0 km/h (0 Bft) 100,00 %
18.03.2020 16:34 18,2 C 20,0 C 16,7 C 53 % 1025,4 hPa 0,0 l/m 2 min 0 min 314 W/m 6,4 km/h (2 Bft) 97,83 %
18.03.2020 16:36 18,2 C 20,0 C 16,7 C 53 % 1025,4 hPa 0,0 l/m 2 min 0 min 311 W/m 6,4 km/h (2 Bft) 97,87 %
18.03.2020 16:38 18,2 C 20,6 C 16,7 C 54 % 1025,4 hPa 0,0 l/m 2 min 0 min 308 W/m 0,0 km/h (0 Bft) 97,87 %
18.03.2020 16:40 18,2 C 20,0 C 16,7 C 54 % 1025,3 hPa 0,0 l/m 2 min 0 min 307 W/m 6,4 km/h (2 Bft) 97,87 %
18.03.2020 16:42 18,2 C 20,6 C 16,7 C 53 % 1025,3 hPa 0,0 l/m 2 min 0 min 298 W/m 6,4 km/h (2 Bft) 97,87 %
18.03.2020 16:44 18,2 C 20,0 C 16,7 C 53 % 1025,3 hPa 0,0 l/m 2 min 0 min 292 W/m 3,2 km/h (1 Bft) 97,83 %
18.03.2020 16:46 18,2 C 20,0 C 16,1 C 52 % 1025,3 hPa 0,0 l/m 2 min 0 min 281 W/m 0,0 km/h (0 Bft) 97,87 %
18.03.2020 16:48 18,2 C 20,0 C 16,1 C 53 % 1025,3 hPa 0,0 l/m 2 min 0 min 276 W/m 3,2 km/h (1 Bft) 97,87 %
18.03.2020 16:50 18,1 C 19,4 C 16,1 C 54 % 1025,3 hPa 0,0 l/m 2 min 0 min 275 W/m 6,4 km/h (2 Bft) 97,87 %
18.03.2020 16:52 18,1 C 19,4 C 16,1 C 53 % 1025,4 hPa 0,0 l/m 2 min 0 min 263 W/m 9,7 km/h (2 Bft) 97,87 %
18.03.2020 16:54 18,1 C 18,9 C 16,1 C 53 % 1025,3 hPa 0,0 l/m 2 min 0 min 262 W/m 3,2 km/h (1 Bft) 97,87 %
18.03.2020 16:56 17,9 C 18,3 C 16,1 C 53 % 1025,3 hPa 0,0 l/m 2 min 0 min 246 W/m 6,4 km/h (2 Bft) 97,83 %
18.03.2020 16:58 17,9 C 17,2 C 15,6 C 54 % 1025,4 hPa 0,0 l/m 0 min 0 min 69 W/m 3,2 km/h (1 Bft) 97,87 %
18.03.2020 17:00 17,8 C 16,7 C 15,6 C 53 % 1025,3 hPa 0,0 l/m 0 min 0 min 67 W/m 12,9 km/h (3 Bft) 95,74 %
18.03.2020 17:02 17,8 C 16,7 C 15,6 C 53 % 1025,3 hPa 0,0 l/m 0 min 0 min 65 W/m 9,7 km/h (2 Bft) 95,74 %
18.03.2020 17:04 17,7 C 16,7 C 15,6 C 54 % 1025,2 hPa 0,0 l/m 0 min 0 min 63 W/m 16,1 km/h (3 Bft) 97,67 %
18.03.2020 17:06 17,6 C 16,7 C 15,6 C 54 % 1025,2 hPa 0,0 l/m 0 min 0 min 62 W/m 0,0 km/h (0 Bft) 97,87 %
18.03.2020 17:08 17,6 C 16,7 C 15,6 C 55 % 1025,3 hPa 0,0 l/m 0 min 0 min 61 W/m 3,2 km/h (1 Bft) 97,87 %
18.03.2020 17:10 17,5 C 16,7 C 15,6 C 54 % 1025,2 hPa 0,0 l/m 0 min 0 min 59 W/m 16,1 km/h (3 Bft) 95,74 %
18.03.2020 17:12 17,4 C 16,1 C 15,6 C 55 % 1025,2 hPa 0,0 l/m 0 min 0 min 56 W/m 3,2 km/h (1 Bft) 95,74 %
18.03.2020 17:14 17,4 C 16,1 C 15,0 C 55 % 1025,2 hPa 0,0 l/m 0 min 0 min 54 W/m 3,2 km/h (1 Bft) 97,87 %
18.03.2020 17:16 17,3 C 16,1 C 15,0 C 55 % 1025,2 hPa 0,0 l/m 0 min 0 min 52 W/m 3,2 km/h (1 Bft) 95,65 %
18.03.2020 17:18 17,3 C 16,1 C 15,0 C 55 % 1025,2 hPa 0,0 l/m 0 min 0 min 51 W/m 3,2 km/h (1 Bft) 97,87 %
18.03.2020 17:20 17,2 C 15,6 C 15,0 C 55 % 1025,2 hPa 0,0 l/m 0 min 0 min 51 W/m 3,2 km/h (1 Bft) 97,87 %
18.03.2020 17:22 17,1 C 15,6 C 15,0 C 55 % 1025,2 hPa 0,0 l/m 0 min 0 min 49 W/m 3,2 km/h (1 Bft) 95,74 %
18.03.2020 17:24 17,1 C 15,6 C 15,0 C 56 % 1025,2 hPa 0,0 l/m 0 min 0 min 49 W/m 3,2 km/h (1 Bft) 93,62 %
18.03.2020 17:26 17,0 C 15,6 C 15,0 C 55 % 1025,1 hPa 0,0 l/m 0 min 0 min 47 W/m 3,2 km/h (1 Bft) 97,87 %
18.03.2020 17:28 16,9 C 15,6 C 15,0 C 56 % 1025,2 hPa 0,0 l/m 0 min 0 min 47 W/m 0,0 km/h (0 Bft) 97,83 %
18.03.2020 17:30 16,9 C 15,6 C 14,4 C 57 % 1025,1 hPa 0,0 l/m 0 min 0 min 47 W/m 0,0 km/h (0 Bft) 97,87 %
18.03.2020 17:32 16,8 C 15,6 C 14,4 C 56 % 1025,1 hPa 0,0 l/m 0 min 0 min 46 W/m 6,4 km/h (2 Bft) 97,87 %
18.03.2020 17:34 16,8 C 15,6 C 14,4 C 56 % 1025,1 hPa 0,0 l/m 0 min 0 min 45 W/m 3,2 km/h (1 Bft) 97,87 %
18.03.2020 17:36 16,7 C 15,6 C 14,4 C 56 % 1025,1 hPa 0,0 l/m 0 min 0 min 43 W/m 3,2 km/h (1 Bft) 97,87 %
18.03.2020 17:38 16,7 C 15,6 C 14,4 C 57 % 1025,1 hPa 0,0 l/m 0 min 0 min 42 W/m 9,7 km/h (2 Bft) 97,87 %
18.03.2020 17:40 16,6 C 15,6 C 14,4 C 57 % 1025,1 hPa 0,0 l/m 0 min 0 min 42 W/m 3,2 km/h (1 Bft) 95,65 %
18.03.2020 17:42 16,6 C 15,6 C 14,4 C 57 % 1025,1 hPa 0,0 l/m 0 min 0 min 41 W/m 9,7 km/h (2 Bft) 93,62 %
18.03.2020 17:44 16,5 C 15,6 C 14,4 C 57 % 1025,1 hPa 0,0 l/m 0 min 0 min 40 W/m 0,0 km/h (0 Bft) 95,74 %
18.03.2020 17:46 16,4 C 15,0 C 14,4 C 57 % 1025,1 hPa 0,0 l/m 0 min 0 min 39 W/m 0,0 km/h (0 Bft) 93,62 %
18.03.2020 17:48 16,4 C 15,0 C 14,4 C 57 % 1025,1 hPa 0,0 l/m 0 min 0 min 37 W/m 3,2 km/h (1 Bft) 95,74 %
18.03.2020 17:50 16,4 C 15,0 C 13,9 C 57 % 1025,1 hPa 0,0 l/m 0 min 0 min 37 W/m 3,2 km/h (1 Bft) 95,65 %
18.03.2020 17:52 16,3 C 15,0 C 13,9 C 58 % 1025,1 hPa 0,0 l/m 0 min 0 min 36 W/m 0,0 km/h (0 Bft) 95,74 %
18.03.2020 17:54 16,3 C 15,0 C 13,9 C 57 % 1025,1 hPa 0,0 l/m 0 min 0 min 33 W/m 0,0 km/h (0 Bft) 95,74 %
18.03.2020 17:56 16,3 C 15,0 C 13,9 C 58 % 1025,1 hPa 0,0 l/m 0 min 0 min 33 W/m 0,0 km/h (0 Bft) 95,74 %
18.03.2020 17:58 16,2 C 15,0 C 13,9 C 58 % 1025,1 hPa 0,0 l/m 0 min 0 min 32 W/m 0,0 km/h (0 Bft) 95,74 %
18.03.2020 18:00 16,2 C 15,0 C 13,9 C 58 % 1025,1 hPa 0,0 l/m 0 min 0 min 32 W/m 0,0 km/h (0 Bft) 93,62 %
18.03.2020 18:02 16,1 C 15,0 C 13,9 C 58 % 1025,1 hPa 0,0 l/m 0 min 0 min 31 W/m 0,0 km/h (0 Bft) 95,65 %
18.03.2020 18:04 16,1 C 15,0 C 13,9 C 58 % 1025,1 hPa 0,0 l/m 0 min 0 min 30 W/m 0,0 km/h (0 Bft) 93,62 %
18.03.2020 18:07 16,1 C 14,4 C 13,9 C 58 % 1025,1 hPa 0,0 l/m 0 min 0 min 28 W/m 0,0 km/h (0 Bft) 97,44 %
18.03.2020 18:08 16,1 C 14,4 C 13,9 C 58 % 1025,1 hPa 0,0 l/m 0 min 0 min 27 W/m 0,0 km/h (0 Bft) 91,30 %
18.03.2020 18:10 16,0 C 14,4 C 13,9 C 59 % 1025,2 hPa 0,0 l/m 0 min 0 min 26 W/m 0,0 km/h (0 Bft) 95,74 %
18.03.2020 18:12 15,9 C 14,4 C 13,9 C 59 % 1025,2 hPa 0,0 l/m 0 min 0 min 26 W/m 0,0 km/h (0 Bft) 95,74 %
18.03.2020 18:14 15,9 C 14,4 C 13,3 C 59 % 1025,2 hPa 0,0 l/m 0 min 0 min 25 W/m 0,0 km/h (0 Bft) 95,74 %
18.03.2020 18:16 15,9 C 14,4 C 13,3 C 59 % 1025,2 hPa 0,0 l/m 0 min 0 min 23 W/m 0,0 km/h (0 Bft) 95,65 %
18.03.2020 18:18 15,8 C 14,4 C 13,3 C 59 % 1025,2 hPa 0,0 l/m 0 min 0 min 21 W/m 0,0 km/h (0 Bft) 93,62 %
18.03.2020 18:20 15,8 C 14,4 C 13,3 C 59 % 1025,2 hPa 0,0 l/m 0 min 0 min 20 W/m 0,0 km/h (0 Bft) 95,74 %
18.03.2020 18:22 15,7 C 13,9 C 12,8 C 60 % 1025,2 hPa 0,0 l/m 0 min 0 min 19 W/m 0,0 km/h (0 Bft) 95,74 %
18.03.2020 18:24 15,7 C 13,9 C 12,8 C 60 % 1025,1 hPa 0,0 l/m 0 min 0 min 18 W/m 0,0 km/h (0 Bft) 97,87 %
18.03.2020 18:26 15,7 C 13,9 C 12,8 C 60 % 1025,1 hPa 0,0 l/m 0 min 0 min 17 W/m 0,0 km/h (0 Bft) 97,87 %
18.03.2020 18:28 15,6 C 13,9 C 12,2 C 60 % 1025,2 hPa 0,0 l/m 0 min 0 min 15 W/m 0,0 km/h (0 Bft) 97,83 %
18.03.2020 18:30 15,6 C 13,9 C 12,2 C 60 % 1025,2 hPa 0,0 l/m 0 min 0 min 14 W/m 0,0 km/h (0 Bft) 100,00 %
18.03.2020 18:32 15,5 C 13,3 C 12,2 C 60 % 1025,2 hPa 0,0 l/m 0 min 0 min 12 W/m 0,0 km/h (0 Bft) 95,74 %
18.03.2020 18:34 15,4 C 13,3 C 11,7 C 61 % 1025,1 hPa 0,0 l/m 0 min 0 min 11 W/m 0,0 km/h (0 Bft) 100,00 %
18.03.2020 18:36 15,4 C 13,3 C 11,7 C 61 % 1025,1 hPa 0,0 l/m 0 min 0 min 10 W/m 0,0 km/h (0 Bft) 100,00 %
18.03.2020 18:38 15,3 C 13,3 C 11,7 C 61 % 1025,2 hPa 0,0 l/m 0 min 0 min 9 W/m 0,0 km/h (0 Bft) 100,00 %
18.03.2020 18:40 15,3 C 12,8 C 11,1 C 61 % 1025,2 hPa 0,0 l/m 0 min 0 min 7 W/m 0,0 km/h (0 Bft) 95,65 %
18.03.2020 18:42 15,2 C 13,3 C 11,1 C 61 % 1025,1 hPa 0,0 l/m 0 min 0 min 6 W/m 0,0 km/h (0 Bft) 100,00 %
18.03.2020 18:44 15,2 C 12,8 C 11,1 C 61 % 1025,2 hPa 0,0 l/m 0 min 0 min 5 W/m 0,0 km/h (0 Bft) 97,87 %
18.03.2020 18:46 15,1 C 12,8 C 10,6 C 62 % 1025,2 hPa 0,0 l/m 0 min 0 min 5 W/m 0,0 km/h (0 Bft) 97,87 %
18.03.2020 18:48 15,1 C 12,8 C 10,6 C 62 % 1025,2 hPa 0,0 l/m 0 min 0 min 4 W/m 0,0 km/h (0 Bft) 97,87 %
18.03.2020 18:50 15,0 C 12,2 C 10,6 C 62 % 1025,2 hPa 0,0 l/m 0 min 0 min 0 W/m 0,0 km/h (0 Bft) 100,00 %
18.03.2020 18:52 14,9 C 12,2 C 10,6 C 62 % 1025,2 hPa 0,0 l/m 0 min 0 min 0 W/m 0,0 km/h (0 Bft) 97,83 %
18.03.2020 18:54 14,8 C 12,2 C 10,0 C 62 % 1025,2 hPa 0,0 l/m 0 min 0 min 0 W/m 0,0 km/h (0 Bft) 95,74 %
18.03.2020 18:56 14,8 C 12,2 C 10,0 C 63 % 1025,2 hPa 0,0 l/m 0 min 0 min 0 W/m 0,0 km/h (0 Bft) 100,00 %
18.03.2020 18:58 14,7 C 12,2 C 10,0 C 63 % 1025,2 hPa 0,0 l/m 0 min 0 min 0 W/m 0,0 km/h (0 Bft) 97,87 %
18.03.2020 19:00 14,6 C 12,2 C 10,0 C 63 % 1025,3 hPa 0,0 l/m 0 min 0 min 0 W/m 0,0 km/h (0 Bft) 97,87 %
18.03.2020 19:02 14,5 C 11,7 C 9,4 C 63 % 1025,3 hPa 0,0 l/m 0 min 0 min 0 W/m 0,0 km/h (0 Bft) 95,74 %
18.03.2020 19:04 14,4 C 11,7 C 9,4 C 64 % 1025,3 hPa 0,0 l/m 0 min 0 min 0 W/m 0,0 km/h (0 Bft) 97,83 %
18.03.2020 19:06 14,3 C 11,7 C 9,4 C 64 % 1025,3 hPa 0,0 l/m 0 min 0 min 0 W/m 0,0 km/h (0 Bft) 97,87 %
18.03.2020 19:08 14,3 C 11,7 C 9,4 C 64 % 1025,3 hPa 0,0 l/m 0 min 0 min 0 W/m 0,0 km/h (0 Bft) 97,87 %
18.03.2020 19:10 14,3 C 11,7 C 9,4 C 64 % 1025,3 hPa 0,0 l/m 0 min 0 min 0 W/m 0,0 km/h (0 Bft) 97,87 %
18.03.2020 19:12 14,2 C 11,7 C 9,4 C 64 % 1025,3 hPa 0,0 l/m 0 min 0 min 0 W/m 0,0 km/h (0 Bft) 93,62 %
18.03.2020 19:14 14,1 C 11,7 C 9,4 C 64 % 1025,3 hPa 0,0 l/m 0 min 0 min 0 W/m 0,0 km/h (0 Bft) 97,83 %
18.03.2020 19:16 14,0 C 11,7 C 9,4 C 65 % 1025,3 hPa 0,0 l/m 0 min 0 min 0 W/m 0,0 km/h (0 Bft) 97,87 %
18.03.2020 19:18 13,9 C 11,1 C 9,4 C 65 % 1025,4 hPa 0,0 l/m 0 min 0 min 0 W/m 0,0 km/h (0 Bft) 91,49 %
18.03.2020 19:20 13,8 C 11,7 C 8,9 C 65 % 1025,3 hPa 0,0 l/m 0 min 0 min 0 W/m 0,0 km/h (0 Bft) 97,87 %
18.03.2020 19:22 13,7 C 11,7 C 8,9 C 66 % 1025,3 hPa 0,0 l/m 0 min 0 min 0 W/m 0,0 km/h (0 Bft) 97,87 %
18.03.2020 19:24 13,7 C 11,7 C 8,9 C 66 % 1025,4 hPa 0,0 l/m 0 min 0 min 0 W/m 0,0 km/h (0 Bft) 97,87 %
18.03.2020 19:26 13,6 C 11,7 C 8,9 C 66 % 1025,4 hPa 0,0 l/m 0 min 0 min 0 W/m 0,0 km/h (0 Bft) 95,65 %
18.03.2020 19:28 13,5 C 11,7 C 8,9 C 66 % 1025,4 hPa 0,0 l/m 0 min 0 min 0 W/m 0,0 km/h (0 Bft) 97,87 %
18.03.2020 19:31 13,4 C 11,7 C 8,9 C 66 % 1025,5 hPa 0,0 l/m 0 min 0 min 0 W/m 0,0 km/h (0 Bft) 100,00 %
18.03.2020 19:32 13,4 C 11,7 C 8,9 C 66 % 1025,5 hPa 0,0 l/m 0 min 0 min 0 W/m 0,0 km/h (0 Bft) 100,00 %
18.03.2020 19:34 13,3 C 11,7 C 8,3 C 66 % 1025,4 hPa 0,0 l/m 0 min 0 min 0 W/m 0,0 km/h (0 Bft) 100,00 %
18.03.2020 19:36 13,3 C 11,7 C 8,3 C 66 % 1025,4 hPa 0,0 l/m 0 min 0 min 0 W/m 0,0 km/h (0 Bft) 97,87 %
18.03.2020 19:38 13,2 C 11,1 C 8,3 C 67 % 1025,4 hPa 0,0 l/m 0 min 0 min 0 W/m 0,0 km/h (0 Bft) 100,00 %
18.03.2020 19:40 13,2 C 11,1 C 8,3 C 67 % 1025,4 hPa 0,0 l/m 0 min 0 min 0 W/m 0,0 km/h (0 Bft) 100,00 %
18.03.2020 19:42 13,1 C 11,7 C 8,3 C 67 % 1025,4 hPa 0,0 l/m 0 min 0 min 0 W/m 0,0 km/h (0 Bft) 100,00 %
18.03.2020 19:44 13,1 C 11,7 C 8,3 C 67 % 1025,4 hPa 0,0 l/m 0 min 0 min 0 W/m 0,0 km/h (0 Bft) 100,00 %
18.03.2020 19:46 12,9 C 11,1 C 8,3 C 67 % 1025,4 hPa 0,0 l/m 0 min 0 min 0 W/m 0,0 km/h (0 Bft) 100,00 %
18.03.2020 19:48 12,9 C 10,6 C 8,3 C 67 % 1025,5 hPa 0,0 l/m 0 min 0 min 0 W/m 0,0 km/h (0 Bft) 100,00 %
18.03.2020 19:50 12,8 C 10,6 C 8,3 C 67 % 1025,4 hPa 0,0 l/m 0 min 0 min 0 W/m 0,0 km/h (0 Bft) 97,83 %
18.03.2020 19:52 12,8 C 10,6 C 7,8 C 68 % 1025,4 hPa 0,0 l/m 0 min 0 min 0 W/m 0,0 km/h (0 Bft) 100,00 %
18.03.2020 19:54 12,7 C 10,0 C 7,8 C 68 % 1025,4 hPa 0,0 l/m 0 min 0 min 0 W/m 0,0 km/h (0 Bft) 100,00 %
18.03.2020 19:56 12,6 C 10,0 C 7,8 C 69 % 1025,5 hPa 0,0 l/m 0 min 0 min 0 W/m 0,0 km/h (0 Bft) 100,00 %
18.03.2020 19:58 12,6 C 10,0 C 7,8 C 69 % 1025,5 hPa 0,0 l/m 0 min 0 min 0 W/m 0,0 km/h (0 Bft) 100,00 %
18.03.2020 20:00 12,4 C 10,0 C 7,8 C 70 % 1025,5 hPa 0,0 l/m 0 min 0 min 0 W/m 0,0 km/h (0 Bft) 97,87 %
18.03.2020 20:02 12,4 C 10,0 C 7,8 C 70 % 1025,5 hPa 0,0 l/m 0 min 0 min 0 W/m 0,0 km/h (0 Bft) 97,83 %
18.03.2020 20:04 12,3 C 10,0 C 7,8 C 70 % 1025,5 hPa 0,0 l/m 0 min 0 min 0 W/m 0,0 km/h (0 Bft) 100,00 %
18.03.2020 20:06 12,2 C 9,4 C 7,8 C 71 % 1025,5 hPa 0,0 l/m 0 min 0 min 0 W/m 0,0 km/h (0 Bft) 100,00 %
18.03.2020 20:08 12,2 C 9,4 C 7,8 C 71 % 1025,5 hPa 0,0 l/m 0 min 0 min 0 W/m 0,0 km/h (0 Bft) 100,00 %
18.03.2020 20:09 12,1 C 9,4 C 7,8 C 71 % 1025,5 hPa 0,0 l/m 0 min 0 min 0 W/m 0,0 km/h (0 Bft) 100,00 %
18.03.2020 20:12 12,0 C 9,4 C 7,8 C 71 % 1025,5 hPa 0,0 l/m 0 min 0 min 0 W/m 0,0 km/h (0 Bft) 100,00 %
18.03.2020 20:14 11,9 C 9,4 C 7,8 C 72 % 1025,5 hPa 0,0 l/m 0 min 0 min 0 W/m 0,0 km/h (0 Bft) 100,00 %
18.03.2020 20:16 11,8 C 8,9 C 7,2 C 72 % 1025,5 hPa 0,0 l/m 0 min 0 min 0 W/m 0,0 km/h (0 Bft) 97,87 %
18.03.2020 20:18 11,8 C 8,9 C 7,2 C 72 % 1025,4 hPa 0,0 l/m 0 min 0 min 0 W/m 0,0 km/h (0 Bft) 100,00 %
18.03.2020 20:20 11,7 C 8,9 C 7,2 C 72 % 1025,5 hPa 0,0 l/m 0 min 0 min 0 W/m 0,0 km/h (0 Bft) 97,87 %
18.03.2020 20:22 11,7 C 8,9 C 7,2 C 73 % 1025,5 hPa 0,0 l/m 0 min 0 min 0 W/m 0,0 km/h (0 Bft) 97,87 %
18.03.2020 20:24 11,6 C 8,9 C 7,2 C 73 % 1025,5 hPa 0,0 l/m 0 min 0 min 0 W/m 0,0 km/h (0 Bft) 100,00 %
18.03.2020 20:26 11,5 C 8,9 C 7,2 C 73 % 1025,5 hPa 0,0 l/m 0 min 0 min 0 W/m 0,0 km/h (0 Bft) 97,87 %
18.03.2020 20:28 11,4 C 8,3 C 7,2 C 73 % 1025,6 hPa 0,0 l/m 0 min 0 min 0 W/m 0,0 km/h (0 Bft) 100,00 %
18.03.2020 20:30 11,3 C 8,3 C 7,2 C 74 % 1025,6 hPa 0,0 l/m 0 min 0 min 0 W/m 0,0 km/h (0 Bft) 100,00 %
18.03.2020 20:32 11,3 C 8,3 C 7,2 C 74 % 1025,5 hPa 0,0 l/m 0 min 0 min 0 W/m 0,0 km/h (0 Bft) 100,00 %
18.03.2020 20:34 11,2 C 8,3 C 7,2 C 74 % 1025,5 hPa 0,0 l/m 0 min 0 min 0 W/m 0,0 km/h (0 Bft) 97,87 %
18.03.2020 20:36 11,1 C 8,3 C 7,2 C 75 % 1025,6 hPa 0,0 l/m 0 min 0 min 0 W/m 0,0 km/h (0 Bft) 97,83 %
18.03.2020 20:38 11,1 C 8,3 C 7,2 C 74 % 1025,6 hPa 0,0 l/m 0 min 0 min 0 W/m 0,0 km/h (0 Bft) 100,00 %
18.03.2020 20:40 11,0 C 8,3 C 7,2 C 75 % 1025,6 hPa 0,0 l/m 0 min 0 min 0 W/m 0,0 km/h (0 Bft) 100,00 %
18.03.2020 20:42 10,9 C 7,8 C 6,7 C 75 % 1025,5 hPa 0,0 l/m 0 min 0 min 0 W/m 0,0 km/h (0 Bft) 97,87 %
18.03.2020 20:44 10,8 C 7,8 C 6,7 C 75 % 1025,5 hPa 0,0 l/m 0 min 0 min 0 W/m 0,0 km/h (0 Bft) 97,87 %
18.03.2020 20:46 10,8 C 7,8 C 6,7 C 75 % 1025,5 hPa 0,0 l/m 0 min 0 min 0 W/m 0,0 km/h (0 Bft) 97,87 %
18.03.2020 20:48 10,7 C 7,8 C 6,7 C 76 % 1025,6 hPa 0,0 l/m 0 min 0 min 0 W/m 0,0 km/h (0 Bft) 97,83 %
18.03.2020 20:50 10,6 C 7,8 C 6,7 C 76 % 1025,5 hPa 0,0 l/m 0 min 0 min 0 W/m 0,0 km/h (0 Bft) 97,87 %
18.03.2020 20:52 10,6 C 7,8 C 6,7 C 76 % 1025,6 hPa 0,0 l/m 0 min 0 min 0 W/m 0,0 km/h (0 Bft) 100,00 %
18.03.2020 20:54 10,5 C 8,3 C 6,7 C 76 % 1025,6 hPa 0,0 l/m 0 min 0 min 0 W/m 0,0 km/h (0 Bft) 97,87 %
18.03.2020 20:56 10,4 C 7,8 C 6,7 C 76 % 1025,5 hPa 0,0 l/m 0 min 0 min 0 W/m 0,0 km/h (0 Bft) 93,62 %
18.03.2020 20:58 10,4 C 7,8 C 6,7 C 76 % 1025,6 hPa 0,0 l/m 0 min 0 min 0 W/m 0,0 km/h (0 Bft) 95,74 %
18.03.2020 21:00 10,3 C 7,8 C 6,7 C 77 % 1025,6 hPa 0,0 l/m 0 min 0 min 0 W/m 0,0 km/h (0 Bft) 95,65 %
18.03.2020 21:02 10,3 C 7,8 C 6,7 C 77 % 1025,6 hPa 0,0 l/m 0 min 0 min 0 W/m 0,0 km/h (0 Bft) 95,74 %
18.03.2020 21:04 10,2 C 7,8 C 6,7 C 77 % 1025,6 hPa 0,0 l/m 0 min 0 min 0 W/m 0,0 km/h (0 Bft) 95,74 %
18.03.2020 21:06 10,1 C 7,8 C 6,7 C 77 % 1025,6 hPa 0,0 l/m 0 min 0 min 0 W/m 0,0 km/h (0 Bft) 95,74 %
18.03.2020 21:08 10,1 C 7,8 C 6,7 C 77 % 1025,6 hPa 0,0 l/m 0 min 0 min 0 W/m 0,0 km/h (0 Bft) 95,74 %
18.03.2020 21:10 10,1 C 7,8 C 6,7 C 77 % 1025,6 hPa 0,0 l/m 0 min 0 min 0 W/m 0,0 km/h (0 Bft) 97,87 %
18.03.2020 21:12 9,9 C 7,8 C 6,1 C 77 % 1025,6 hPa 0,0 l/m 0 min 0 min 0 W/m 0,0 km/h (0 Bft) 95,65 %
18.03.2020 21:14 9,9 C 7,8 C 6,1 C 77 % 1025,6 hPa 0,0 l/m 0 min 0 min 0 W/m 0,0 km/h (0 Bft) 91,49 %
18.03.2020 21:16 9,8 C 7,8 C 6,1 C 77 % 1025,6 hPa 0,0 l/m 0 min 0 min 0 W/m 0,0 km/h (0 Bft) 50,00 %
18.03.2020 21:18 9,8 C 7,8 C 6,1 C 78 % 1025,6 hPa 0,0 l/m 0 min 0 min 0 W/m 0,0 km/h (0 Bft) 97,87 %
18.03.2020 21:20 9,8 C 7,8 C 6,1 C 77 % 1025,6 hPa 0,0 l/m 0 min 0 min 0 W/m 0,0 km/h (0 Bft) 97,87 %
18.03.2020 21:22 9,7 C 7,8 C 6,1 C 78 % 1025,7 hPa 0,0 l/m 0 min 0 min 0 W/m 0,0 km/h (0 Bft) 97,83 %
18.03.2020 21:24 9,7 C 7,2 C 6,1 C 78 % 1025,7 hPa 0,0 l/m 0 min 0 min 0 W/m 0,0 km/h (0 Bft) 97,87 %
18.03.2020 21:26 9,6 C 7,2 C 6,1 C 78 % 1025,7 hPa 0,0 l/m 0 min 0 min 0 W/m 0,0 km/h (0 Bft) 97,87 %
18.03.2020 21:28 9,6 C 7,2 C 6,1 C 78 % 1025,7 hPa 0,0 l/m 0 min 0 min 0 W/m 0,0 km/h (0 Bft) 97,87 %
18.03.2020 21:30 9,5 C 7,2 C 6,1 C 78 % 1025,7 hPa 0,0 l/m 0 min 0 min 0 W/m 0,0 km/h (0 Bft) 93,62 %
18.03.2020 21:32 9,4 C 7,2 C 6,1 C 78 % 1025,7 hPa 0,0 l/m 0 min 0 min 0 W/m 0,0 km/h (0 Bft) 97,87 %
18.03.2020 21:34 9,4 C 7,2 C 6,1 C 78 % 1025,7 hPa 0,0 l/m 0 min 0 min 0 W/m 0,0 km/h (0 Bft) 97,83 %
18.03.2020 21:36 9,3 C 7,2 C 6,1 C 78 % 1025,7 hPa 0,0 l/m 0 min 0 min 0 W/m 0,0 km/h (0 Bft) 95,74 %
18.03.2020 21:38 9,3 C 7,2 C 6,1 C 79 % 1025,7 hPa 0,0 l/m 0 min 0 min 0 W/m 0,0 km/h (0 Bft) 95,74 %
18.03.2020 21:40 9,3 C 7,2 C 6,1 C 79 % 1025,7 hPa 0,0 l/m 0 min 0 min 0 W/m 0,0 km/h (0 Bft) 97,87 %
18.03.2020 21:42 9,2 C 7,2 C 6,1 C 79 % 1025,7 hPa 0,0 l/m 0 min 0 min 0 W/m 0,0 km/h (0 Bft) 97,87 %
18.03.2020 21:44 9,2 C 7,2 C 5,6 C 79 % 1025,7 hPa 0,0 l/m 0 min 0 min 0 W/m 0,0 km/h (0 Bft) 97,87 %
18.03.2020 21:46 9,1 C 7,2 C 5,6 C 79 % 1025,7 hPa 0,0 l/m 0 min 0 min 0 W/m 0,0 km/h (0 Bft) 95,65 %
18.03.2020 21:48 9,1 C 7,2 C 5,6 C 79 % 1025,7 hPa 0,0 l/m 0 min 0 min 0 W/m 0,0 km/h (0 Bft) 97,87 %
18.03.2020 21:50 9,1 C 7,2 C 5,6 C 79 % 1025,7 hPa 0,0 l/m 0 min 0 min 0 W/m 0,0 km/h (0 Bft) 95,74 %
18.03.2020 21:52 9,0 C 6,7 C 5,6 C 79 % 1025,7 hPa 0,0 l/m 0 min 0 min 0 W/m 0,0 km/h (0 Bft) 95,74 %
18.03.2020 21:54 8,9 C 6,7 C 5,6 C 79 % 1025,7 hPa 0,0 l/m 0 min 0 min 0 W/m 0,0 km/h (0 Bft) 95,74 %
18.03.2020 21:56 8,9 C 6,7 C 5,6 C 79 % 1025,7 hPa 0,0 l/m 0 min 0 min 0 W/m 0,0 km/h (0 Bft) 95,74 %
18.03.2020 21:58 8,9 C 6,7 C 5,6 C 80 % 1025,7 hPa 0,0 l/m 0 min 0 min 0 W/m 0,0 km/h (0 Bft) 93,48 %
18.03.2020 22:00 8,8 C 6,7 C 5,6 C 79 % 1025,7 hPa 0,0 l/m 0 min 0 min 0 W/m 0,0 km/h (0 Bft) 95,74 %
18.03.2020 22:02 8,8 C 6,7 C 5,6 C 80 % 1025,7 hPa 0,0 l/m 0 min 0 min 0 W/m 0,0 km/h (0 Bft) 95,74 %
18.03.2020 22:04 8,7 C 6,7 C 5,6 C 80 % 1025,6 hPa 0,0 l/m 0 min 0 min 0 W/m 0,0 km/h (0 Bft) 95,74 %
18.03.2020 22:06 8,7 C 6,7 C 5,6 C 80 % 1025,7 hPa 0,0 l/m 0 min 0 min 0 W/m 0,0 km/h (0 Bft) 95,74 %
18.03.2020 22:08 8,7 C 6,7 C 5,6 C 80 % 1025,7 hPa 0,0 l/m 0 min 0 min 0 W/m 0,0 km/h (0 Bft) 95,65 %
18.03.2020 22:10 8,6 C 6,7 C 5,6 C 80 % 1025,7 hPa 0,0 l/m 0 min 0 min 0 W/m 0,0 km/h (0 Bft) 93,62 %
18.03.2020 22:12 8,6 C 6,7 C 5,6 C 80 % 1025,7 hPa 0,0 l/m 0 min 0 min 0 W/m 0,0 km/h (0 Bft) 97,87 %
18.03.2020 22:14 8,6 C 6,7 C 5,6 C 80 % 1025,6 hPa 0,0 l/m 0 min 0 min 0 W/m 0,0 km/h (0 Bft) 93,62 %
18.03.2020 22:16 8,5 C 6,7 C 5,6 C 80 % 1025,6 hPa 0,0 l/m 0 min 0 min 0 W/m 0,0 km/h (0 Bft) 95,74 %
18.03.2020 22:18 8,4 C 6,7 C 5,6 C 80 % 1025,6 hPa 0,0 l/m 0 min 0 min 0 W/m 0,0 km/h (0 Bft) 95,74 %
18.03.2020 22:20 8,4 C 6,7 C 5,6 C 80 % 1025,6 hPa 0,0 l/m 0 min 0 min 0 W/m 0,0 km/h (0 Bft) 95,65 %
18.03.2020 22:22 8,4 C 6,7 C 5,6 C 81 % 1025,6 hPa 0,0 l/m 0 min 0 min 0 W/m 0,0 km/h (0 Bft) 93,62 %
18.03.2020 22:24 8,3 C 6,7 C 5,6 C 81 % 1025,6 hPa 0,0 l/m 0 min 0 min 0 W/m 0,0 km/h (0 Bft) 95,74 %
18.03.2020 22:26 8,3 C 6,7 C 5,6 C 81 % 1025,6 hPa 0,0 l/m 0 min 0 min 0 W/m 0,0 km/h (0 Bft) 95,74 %
18.03.2020 22:28 8,3 C 6,1 C 5,6 C 81 % 1025,6 hPa 0,0 l/m 0 min 0 min 0 W/m 0,0 km/h (0 Bft) 95,74 %
18.03.2020 22:30 8,2 C 6,1 C 5,6 C 81 % 1025,6 hPa 0,0 l/m 0 min 0 min 0 W/m 0,0 km/h (0 Bft) 95,74 %
18.03.2020 22:32 8,2 C 6,1 C 5,6 C 81 % 1025,6 hPa 0,0 l/m 0 min 0 min 0 W/m 0,0 km/h (0 Bft) 52,27 %
18.03.2020 22:34 8,1 C 6,1 C 5,0 C 81 % 1025,6 hPa 0,0 l/m 0 min 0 min 0 W/m 0,0 km/h (0 Bft) 95,74 %
18.03.2020 22:36 8,1 C 6,1 C 5,0 C 81 % 1025,6 hPa 0,0 l/m 0 min 0 min 0 W/m 0,0 km/h (0 Bft) 95,74 %
18.03.2020 22:38 8,1 C 6,1 C 5,0 C 81 % 1025,6 hPa 0,0 l/m 0 min 0 min 0 W/m 0,0 km/h (0 Bft) 95,74 %
18.03.2020 22:40 8,1 C 6,1 C 5,0 C 82 % 1025,6 hPa 0,0 l/m 0 min 0 min 0 W/m 0,0 km/h (0 Bft) 93,62 %
18.03.2020 22:42 8,0 C 6,1 C 5,0 C 82 % 1025,6 hPa 0,0 l/m 0 min 0 min 0 W/m 0,0 km/h (0 Bft) 97,87 %
18.03.2020 22:44 7,9 C 6,1 C 5,0 C 82 % 1025,6 hPa 0,0 l/m 0 min 0 min 0 W/m 0,0 km/h (0 Bft) 97,83 %
18.03.2020 22:46 7,9 C 6,1 C 5,0 C 82 % 1025,6 hPa 0,0 l/m 0 min 0 min 0 W/m 0,0 km/h (0 Bft) 97,87 %
18.03.2020 22:48 7,9 C 6,1 C 5,0 C 82 % 1025,5 hPa 0,0 l/m 0 min 0 min 0 W/m 0,0 km/h (0 Bft) 95,74 %
18.03.2020 22:50 7,8 C 6,1 C 5,0 C 82 % 1025,6 hPa 0,0 l/m 0 min 0 min 0 W/m 0,0 km/h (0 Bft) 97,87 %
18.03.2020 22:52 7,8 C 6,1 C 5,0 C 82 % 1025,5 hPa 0,0 l/m 0 min 0 min 0 W/m 0,0 km/h (0 Bft) 97,87 %
18.03.2020 22:54 7,8 C 6,1 C 5,0 C 83 % 1025,6 hPa 0,0 l/m 0 min 0 min 0 W/m 0,0 km/h (0 Bft) 95,74 %
18.03.2020 22:56 7,7 C 6,1 C 5,0 C 83 % 1025,6 hPa 0,0 l/m 0 min 0 min 0 W/m 0,0 km/h (0 Bft) 97,83 %
18.03.2020 22:58 7,7 C 6,1 C 5,0 C 83 % 1025,5 hPa 0,0 l/m 0 min 0 min 0 W/m 0,0 km/h (0 Bft) 97,87 %
18.03.2020 23:00 7,7 C 6,1 C 5,0 C 83 % 1025,5 hPa 0,0 l/m 0 min 0 min 0 W/m 0,0 km/h (0 Bft) 95,74 %
18.03.2020 23:02 7,7 C 6,1 C 5,0 C 83 % 1025,5 hPa 0,0 l/m 0 min 0 min 0 W/m 0,0 km/h (0 Bft) 97,87 %
18.03.2020 23:04 7,6 C 6,1 C 5,0 C 83 % 1025,5 hPa 0,0 l/m 0 min 0 min 0 W/m 0,0 km/h (0 Bft) 97,87 %
18.03.2020 23:06 7,6 C 6,1 C 5,0 C 83 % 1025,5 hPa 0,0 l/m 0 min 0 min 0 W/m 0,0 km/h (0 Bft) 97,87 %
18.03.2020 23:08 7,6 C 6,1 C 5,0 C 83 % 1025,5 hPa 0,0 l/m 0 min 0 min 0 W/m 0,0 km/h (0 Bft) 97,83 %
18.03.2020 23:10 7,6 C 6,1 C 5,0 C 84 % 1025,5 hPa 0,0 l/m 0 min 0 min 0 W/m 0,0 km/h (0 Bft) 97,87 %
18.03.2020 23:12 7,5 C 6,1 C 5,0 C 83 % 1025,5 hPa 0,0 l/m 0 min 0 min 0 W/m 0,0 km/h (0 Bft) 95,74 %
18.03.2020 23:14 7,5 C 6,1 C 5,0 C 84 % 1025,5 hPa 0,0 l/m 0 min 0 min 0 W/m 0,0 km/h (0 Bft) 97,87 %
18.03.2020 23:16 7,4 C 6,1 C 5,0 C 84 % 1025,5 hPa 0,0 l/m 0 min 0 min 0 W/m 0,0 km/h (0 Bft) 97,87 %
18.03.2020 23:18 7,4 C 6,1 C 5,0 C 84 % 1025,5 hPa 0,0 l/m 0 min 0 min 0 W/m 0,0 km/h (0 Bft) 97,83 %
18.03.2020 23:20 7,4 C 6,1 C 5,0 C 85 % 1025,5 hPa 0,0 l/m 0 min 0 min 0 W/m 0,0 km/h (0 Bft) 97,87 %
18.03.2020 23:22 7,4 C 6,1 C 5,0 C 85 % 1025,5 hPa 0,0 l/m 0 min 0 min 0 W/m 0,0 km/h (0 Bft) 97,87 %
18.03.2020 23:24 7,4 C 6,1 C 5,0 C 85 % 1025,4 hPa 0,0 l/m 0 min 0 min 0 W/m 0,0 km/h (0 Bft) 97,87 %
18.03.2020 23:26 7,3 C 6,1 C 5,0 C 85 % 1025,5 hPa 0,0 l/m 0 min 0 min 0 W/m 0,0 km/h (0 Bft) 97,87 %
18.03.2020 23:28 7,3 C 6,1 C 5,0 C 85 % 1025,4 hPa 0,0 l/m 0 min 0 min 0 W/m 0,0 km/h (0 Bft) 100,00 %
18.03.2020 23:30 7,3 C 6,1 C 5,0 C 85 % 1025,4 hPa 0,0 l/m 0 min 0 min 0 W/m 0,0 km/h (0 Bft) 100,00 %
18.03.2020 23:32 7,3 C 6,1 C 5,0 C 85 % 1025,4 hPa 0,0 l/m 0 min 0 min 0 W/m 0,0 km/h (0 Bft) 100,00 %
18.03.2020 23:34 7,2 C 5,6 C 4,4 C 85 % 1025,4 hPa 0,0 l/m 0 min 0 min 0 W/m 0,0 km/h (0 Bft) 100,00 %
18.03.2020 23:36 7,2 C 5,6 C 4,4 C 86 % 1025,4 hPa 0,0 l/m 0 min 0 min 0 W/m 0,0 km/h (0 Bft) 93,62 %
18.03.2020 23:38 7,2 C 5,6 C 4,4 C 86 % 1025,4 hPa 0,0 l/m 0 min 0 min 0 W/m 0,0 km/h (0 Bft) 100,00 %
18.03.2020 23:40 7,2 C 5,6 C 4,4 C 86 % 1025,5 hPa 0,0 l/m 0 min 0 min 0 W/m 0,0 km/h (0 Bft) 100,00 %
18.03.2020 23:42 7,2 C 5,6 C 4,4 C 86 % 1025,4 hPa 0,0 l/m 0 min 0 min 0 W/m 0,0 km/h (0 Bft) 97,83 %
18.03.2020 23:44 7,1 C 5,6 C 4,4 C 86 % 1025,5 hPa 0,0 l/m 0 min 0 min 0 W/m 0,0 km/h (0 Bft) 100,00 %
18.03.2020 23:46 7,1 C 5,6 C 4,4 C 86 % 1025,4 hPa 0,0 l/m 0 min 0 min 0 W/m 0,0 km/h (0 Bft) 97,87 %
18.03.2020 23:48 7,1 C 5,6 C 4,4 C 86 % 1025,5 hPa 0,0 l/m 0 min 0 min 0 W/m 0,0 km/h (0 Bft) 97,87 %
18.03.2020 23:50 7,1 C 5,6 C 4,4 C 86 % 1025,5 hPa 0,0 l/m 0 min 0 min 0 W/m 0,0 km/h (0 Bft) 97,87 %
18.03.2020 23:52 7,1 C 5,6 C 4,4 C 86 % 1025,6 hPa 0,0 l/m 0 min 0 min 0 W/m 0,0 km/h (0 Bft) 97,87 %
18.03.2020 23:54 7,0 C 5,6 C 4,4 C 86 % 1025,5 hPa 0,0 l/m 0 min 0 min 0 W/m 0,0 km/h (0 Bft) 95,65 %
18.03.2020 23:56 7,0 C 5,6 C 4,4 C 86 % 1025,5 hPa 0,0 l/m 0 min 0 min 0 W/m 0,0 km/h (0 Bft) 97,87 %
18.03.2020 23:58 6,9 C 5,6 C 4,4 C 86 % 1025,5 hPa 0,0 l/m 0 min 0 min 0 W/m 0,0 km/h (0 Bft) 97,87 %
_ Min-Zeit 06:52 05:28 04:28 12:42 17:26 - - - - 00:00 09:08
Minimum _ 5,6 C 5,0 C 3,9 C 49 % 1025,1 hPa - - - - 0,0 km/h (0 Bft) 47,37 %
_ Max-Zeit 15:50 13:28 13:00 08:46 00:00 00:00 14:39 00:00 12:32 11:08 00:02
Maximum _ 18,8 C 23,3 C 23,3 C 96 % 1029,5 hPa 0,0 l/m 5 min 0 min 693 W/m 35,4 km/h
S-SO (5 Bft)
100,00 %
Durchschnitt _ 11,4 C 11,9 C 10,0 C 72 % 1027,1 hPa #0,0 l/m #8:08 h #0 min. 367 W/m 3,8 km/h (1 Bft) 97,32 %
© 2020 W. Hausmann